PWSweather.com
Personal Weather Stations
Station Observations
EI4HQ
Cork Harbour, CobhIE

Cork HarbourCobhIE

Lat: 51.85, Lon: -8.29

Elevation: 252

Station Type: Davis Vantage Pro2

http://www.corkharbourweather.ie

Latest ConditionsUpdated 8:03:00 PM GMT Wednesday, Dec 12, 2018
Currently Today's Max Today's Min Today's Average
Temperature 48.9°F9.4°C 49.6°F9.8°C 46.9°F8.3°C 47.8°F8.8°C
Dew Point 45.0°F7.2°C 46.8°F8.2°C 45.0°F7.2°C 45.4°F7.4°C
Winds 30.0 mph SSE48.3 kmh SSE 33.0 mph -53.1 kmh - - 12.7 mph 20.4 kmh
Wind Gusts 48.0 mph77.2 kmh 51.0 mph82.1 kmh - -
Humidity 86% 97% 86% 91%
Pressure 29.61 in1002.7 mb 29.98 in1015.2 mb 29.61 in1002.7 mb -
Hour Temp Dew Point Humidity Winds Wind Gusts Pressure Precip Precip Rate Daily Precip Total
08:03 PM 48.9°F9.4°C 45.0°F7.2°C 86% 30.0 mph SSE48.3 kmh SSE 48.0 mph77.2 kmh 29.61 in1002.7 mb 0.00 in0.0 mm 0.00 in0.0 mm 0.00 in0.0 mm
08:00 PM 48.9°F9.4°C 45.0°F7.2°C 86% 31.0 mph SSE49.9 kmh SSE 48.0 mph77.2 kmh 29.61 in1002.7 mb 0.00 in0.0 mm 0.00 in0.0 mm 0.00 in0.0 mm
07:57 PM 48.9°F9.4°C 45.0°F7.2°C 86% 32.0 mph SSE51.5 kmh SSE 48.0 mph77.2 kmh 29.61 in1002.7 mb 0.00 in0.0 mm 0.00 in0.0 mm 0.00 in0.0 mm
07:54 PM 48.9°F9.4°C 45.0°F7.2°C 86% 32.0 mph SSE51.5 kmh SSE 50.0 mph80.5 kmh 29.61 in1002.7 mb 0.00 in0.0 mm 0.00 in0.0 mm 0.00 in0.0 mm
07:51 PM 48.9°F9.4°C 45.0°F7.2°C 86% 32.0 mph SSE51.5 kmh SSE 50.0 mph80.5 kmh 29.61 in1002.7 mb 0.00 in0.0 mm 0.00 in0.0 mm 0.00 in0.0 mm
07:48 PM 48.9°F9.4°C 45.0°F7.2°C 86% 32.0 mph SSE51.5 kmh SSE 50.0 mph80.5 kmh 29.62 in1003.0 mb 0.00 in0.0 mm 0.00 in0.0 mm 0.00 in0.0 mm
07:45 PM 48.9°F9.4°C 45.0°F7.2°C 86% 32.0 mph SSE51.5 kmh SSE 50.0 mph80.5 kmh 29.62 in1003.0 mb 0.00 in0.0 mm 0.00 in0.0 mm 0.00 in0.0 mm
07:42 PM 48.9°F9.4°C 45.0°F7.2°C 86% 32.0 mph SSE51.5 kmh SSE 48.0 mph77.2 kmh 29.62 in1003.0 mb 0.00 in0.0 mm 0.00 in0.0 mm 0.00 in0.0 mm
07:39 PM 48.9°F9.4°C 45.0°F7.2°C 86% 32.0 mph SSE51.5 kmh SSE 48.0 mph77.2 kmh 29.62 in1003.0 mb 0.00 in0.0 mm 0.00 in0.0 mm 0.00 in0.0 mm
07:36 PM 48.9°F9.4°C 45.0°F7.2°C 86% 30.0 mph SSE48.3 kmh SSE 47.0 mph75.6 kmh 29.62 in1003.0 mb 0.00 in0.0 mm 0.00 in0.0 mm 0.00 in0.0 mm
07:33 PM 48.9°F9.4°C 45.0°F7.2°C 86% 28.0 mph SSE45.1 kmh SSE 42.0 mph67.6 kmh 29.62 in1003.0 mb 0.00 in0.0 mm 0.00 in0.0 mm 0.00 in0.0 mm
07:30 PM 48.9°F9.4°C 45.0°F7.2°C 86% 27.0 mph SSE43.5 kmh SSE 42.0 mph67.6 kmh 29.62 in1003.0 mb 0.00 in0.0 mm 0.00 in0.0 mm 0.00 in0.0 mm
07:27 PM 48.9°F9.4°C 45.0°F7.2°C 86% 28.0 mph SSE45.1 kmh SSE 43.0 mph69.2 kmh 29.63 in1003.4 mb 0.00 in0.0 mm 0.00 in0.0 mm 0.00 in0.0 mm
07:24 PM 48.9°F9.4°C 45.0°F7.2°C 86% 28.0 mph SSE45.1 kmh SSE 43.0 mph69.2 kmh 29.62 in1003.0 mb 0.00 in0.0 mm 0.00 in0.0 mm 0.00 in0.0 mm
07:21 PM 48.9°F9.4°C 45.0°F7.2°C 86% 29.0 mph SSE46.7 kmh SSE 48.0 mph77.2 kmh 29.63 in1003.4 mb 0.00 in0.0 mm 0.00 in0.0 mm 0.00 in0.0 mm
07:18 PM 48.9°F9.4°C 45.0°F7.2°C 86% 29.0 mph SSE46.7 kmh SSE 48.0 mph77.2 kmh 29.63 in1003.4 mb 0.00 in0.0 mm 0.00 in0.0 mm 0.00 in0.0 mm
07:15 PM 48.9°F9.4°C 45.0°F7.2°C 86% 30.0 mph SSE48.3 kmh SSE 48.0 mph77.2 kmh 29.63 in1003.4 mb 0.00 in0.0 mm 0.00 in0.0 mm 0.00 in0.0 mm
07:12 PM 48.9°F9.4°C 45.0°F7.2°C 86% 31.0 mph SSE49.9 kmh SSE 48.0 mph77.2 kmh 29.63 in1003.4 mb 0.00 in0.0 mm 0.00 in0.0 mm 0.00 in0.0 mm
07:09 PM 48.9°F9.4°C 45.0°F7.2°C 86% 30.0 mph SSE48.3 kmh SSE 42.0 mph67.6 kmh 29.63 in1003.4 mb 0.00 in0.0 mm 0.00 in0.0 mm 0.00 in0.0 mm
07:06 PM 48.9°F9.4°C 45.0°F7.2°C 86% 30.0 mph SSE48.3 kmh SSE 45.0 mph72.4 kmh 29.64 in1003.7 mb 0.00 in0.0 mm 0.00 in0.0 mm 0.00 in0.0 mm
07:03 PM 48.9°F9.4°C 45.0°F7.2°C 86% 31.0 mph SSE49.9 kmh SSE 45.0 mph72.4 kmh 29.64 in1003.7 mb 0.00 in0.0 mm 0.00 in0.0 mm 0.00 in0.0 mm
07:00 PM 48.9°F9.4°C 45.0°F7.2°C 86% 31.0 mph SSE49.9 kmh SSE 45.0 mph72.4 kmh 29.64 in1003.7 mb 0.00 in0.0 mm 0.00 in0.0 mm 0.00 in0.0 mm
06:57 PM 48.9°F9.4°C 45.0°F7.2°C 86% 31.0 mph SSE49.9 kmh SSE 45.0 mph72.4 kmh 29.64 in1003.7 mb 0.00 in0.0 mm 0.00 in0.0 mm 0.00 in0.0 mm
06:54 PM 48.9°F9.4°C 45.0°F7.2°C 86% 30.0 mph SSE48.3 kmh SSE 45.0 mph72.4 kmh 29.64 in1003.7 mb 0.00 in0.0 mm 0.00 in0.0 mm 0.00 in0.0 mm
06:51 PM 48.9°F9.4°C 45.0°F7.2°C 86% 30.0 mph SSE48.3 kmh SSE 45.0 mph72.4 kmh 29.64 in1003.7 mb 0.00 in0.0 mm 0.00 in0.0 mm 0.00 in0.0 mm
06:48 PM 48.9°F9.4°C 45.0°F7.2°C 86% 31.0 mph SSE49.9 kmh SSE 45.0 mph72.4 kmh 29.64 in1003.7 mb 0.00 in0.0 mm 0.00 in0.0 mm 0.00 in0.0 mm
06:45 PM 48.9°F9.4°C 45.0°F7.2°C 86% 31.0 mph SSE49.9 kmh SSE 46.0 mph74.0 kmh 29.65 in1004.1 mb 0.00 in0.0 mm 0.00 in0.0 mm 0.00 in0.0 mm
06:42 PM 48.9°F9.4°C 45.0°F7.2°C 86% 33.0 mph SSE53.1 kmh SSE 48.0 mph77.2 kmh 29.64 in1003.7 mb 0.00 in0.0 mm 0.00 in0.0 mm 0.00 in0.0 mm
06:39 PM 48.9°F9.4°C 45.0°F7.2°C 86% 33.0 mph SSE53.1 kmh SSE 50.0 mph80.5 kmh 29.64 in1003.7 mb 0.00 in0.0 mm 0.00 in0.0 mm 0.00 in0.0 mm
06:36 PM 48.9°F9.4°C 45.0°F7.2°C 86% 32.0 mph SSE51.5 kmh SSE 50.0 mph80.5 kmh 29.65 in1004.1 mb 0.00 in0.0 mm 0.00 in0.0 mm 0.00 in0.0 mm
06:33 PM 48.9°F9.4°C 45.0°F7.2°C 86% 30.0 mph SSE48.3 kmh SSE 50.0 mph80.5 kmh 29.65 in1004.1 mb 0.00 in0.0 mm 0.00 in0.0 mm 0.00 in0.0 mm
06:30 PM 48.9°F9.4°C 45.0°F7.2°C 86% 28.0 mph SSE45.1 kmh SSE 42.0 mph67.6 kmh 29.65 in1004.1 mb 0.00 in0.0 mm 0.00 in0.0 mm 0.00 in0.0 mm
06:27 PM 48.9°F9.4°C 45.0°F7.2°C 86% 28.0 mph SSE45.1 kmh SSE 40.0 mph64.4 kmh 29.65 in1004.1 mb 0.00 in0.0 mm 0.00 in0.0 mm 0.00 in0.0 mm
06:24 PM 48.9°F9.4°C 45.0°F7.2°C 86% 29.0 mph SSE46.7 kmh SSE 41.0 mph66.0 kmh 29.65 in1004.1 mb 0.00 in0.0 mm 0.00 in0.0 mm 0.00 in0.0 mm
06:21 PM 48.9°F9.4°C 45.0°F7.2°C 86% 30.0 mph SSE48.3 kmh SSE 44.0 mph70.8 kmh 29.65 in1004.1 mb 0.00 in0.0 mm 0.00 in0.0 mm 0.00 in0.0 mm
06:18 PM 48.9°F9.4°C 45.0°F7.2°C 86% 29.0 mph SSE46.7 kmh SSE 44.0 mph70.8 kmh 29.65 in1004.1 mb 0.00 in0.0 mm 0.00 in0.0 mm 0.00 in0.0 mm
06:15 PM 48.9°F9.4°C 45.0°F7.2°C 86% 28.0 mph SSE45.1 kmh SSE 44.0 mph70.8 kmh 29.65 in1004.1 mb 0.00 in0.0 mm 0.00 in0.0 mm 0.00 in0.0 mm
06:12 PM 48.9°F9.4°C 45.0°F7.2°C 86% 28.0 mph SSE45.1 kmh SSE 40.0 mph64.4 kmh 29.66 in1004.4 mb 0.00 in0.0 mm 0.00 in0.0 mm 0.00 in0.0 mm
06:09 PM 48.9°F9.4°C 45.0°F7.2°C 86% 28.0 mph SSE45.1 kmh SSE 40.0 mph64.4 kmh 29.66 in1004.4 mb 0.00 in0.0 mm 0.00 in0.0 mm 0.00 in0.0 mm
06:06 PM 48.9°F9.4°C 45.0°F7.2°C 86% 28.0 mph SSE45.1 kmh SSE 40.0 mph64.4 kmh 29.66 in1004.4 mb 0.00 in0.0 mm 0.00 in0.0 mm 0.00 in0.0 mm
06:03 PM 48.9°F9.4°C 45.0°F7.2°C 86% 29.0 mph SSE46.7 kmh SSE 41.0 mph66.0 kmh 29.66 in1004.4 mb 0.00 in0.0 mm 0.00 in0.0 mm 0.00 in0.0 mm
06:00 PM 48.9°F9.4°C 45.0°F7.2°C 86% 29.0 mph SSE46.7 kmh SSE 44.0 mph70.8 kmh 29.66 in1004.4 mb 0.00 in0.0 mm 0.00 in0.0 mm 0.00 in0.0 mm
05:57 PM 48.9°F9.4°C 45.0°F7.2°C 86% 30.0 mph SSE48.3 kmh SSE 45.0 mph72.4 kmh 29.66 in1004.4 mb 0.00 in0.0 mm 0.00 in0.0 mm 0.00 in0.0 mm
05:54 PM 48.9°F9.4°C 45.0°F7.2°C 86% 31.0 mph SSE49.9 kmh SSE 46.0 mph74.0 kmh 29.66 in1004.4 mb 0.00 in0.0 mm 0.00 in0.0 mm 0.00 in0.0 mm
05:51 PM 48.9°F9.4°C 45.0°F7.2°C 86% 31.0 mph SSE49.9 kmh SSE 47.0 mph75.6 kmh 29.67 in1004.7 mb 0.00 in0.0 mm 0.00 in0.0 mm 0.00 in0.0 mm
05:48 PM 48.9°F9.4°C 45.0°F7.2°C 86% 33.0 mph SSE53.1 kmh SSE 51.0 mph82.1 kmh 29.66 in1004.4 mb 0.00 in0.0 mm 0.00 in0.0 mm 0.00 in0.0 mm
05:45 PM 48.9°F9.4°C 45.0°F7.2°C 86% 31.0 mph SSE49.9 kmh SSE 51.0 mph82.1 kmh 29.66 in1004.4 mb 0.00 in0.0 mm 0.00 in0.0 mm 0.00 in0.0 mm
05:42 PM 48.9°F9.4°C 45.0°F7.2°C 86% 31.0 mph SSE49.9 kmh SSE 51.0 mph82.1 kmh 29.66 in1004.4 mb 0.00 in0.0 mm 0.00 in0.0 mm 0.00 in0.0 mm
05:39 PM 48.9°F9.4°C 45.0°F7.2°C 86% 29.0 mph SSE46.7 kmh SSE 42.0 mph67.6 kmh 29.67 in1004.7 mb 0.00 in0.0 mm 0.00 in0.0 mm 0.00 in0.0 mm
05:36 PM 48.9°F9.4°C 45.0°F7.2°C 86% 29.0 mph SSE46.7 kmh SSE 48.0 mph77.2 kmh 29.67 in1004.7 mb 0.00 in0.0 mm 0.00 in0.0 mm 0.00 in0.0 mm
05:33 PM 48.9°F9.4°C 45.0°F7.2°C 86% 29.0 mph SSE46.7 kmh SSE 48.0 mph77.2 kmh 29.68 in1005.1 mb 0.00 in0.0 mm 0.00 in0.0 mm 0.00 in0.0 mm
05:30 PM 48.9°F9.4°C 45.0°F7.2°C 86% 30.0 mph SSE48.3 kmh SSE 48.0 mph77.2 kmh 29.68 in1005.1 mb 0.00 in0.0 mm 0.00 in0.0 mm 0.00 in0.0 mm
05:27 PM 48.9°F9.4°C 45.0°F7.2°C 86% 29.0 mph SSE46.7 kmh SSE 42.0 mph67.6 kmh 29.68 in1005.1 mb 0.00 in0.0 mm 0.00 in0.0 mm 0.00 in0.0 mm
05:24 PM 48.9°F9.4°C 45.0°F7.2°C 86% 29.0 mph SSE46.7 kmh SSE 42.0 mph67.6 kmh 29.68 in1005.1 mb 0.00 in0.0 mm 0.00 in0.0 mm 0.00 in0.0 mm
05:21 PM 48.9°F9.4°C 45.0°F7.2°C 86% 28.0 mph SSE45.1 kmh SSE 41.0 mph66.0 kmh 29.68 in1005.1 mb 0.00 in0.0 mm 0.00 in0.0 mm 0.00 in0.0 mm
05:18 PM 48.9°F9.4°C 45.0°F7.2°C 86% 28.0 mph SSE45.1 kmh SSE 41.0 mph66.0 kmh 29.69 in1005.4 mb 0.00 in0.0 mm 0.00 in0.0 mm 0.00 in0.0 mm
05:15 PM 48.9°F9.4°C 45.0°F7.2°C 86% 29.0 mph SSE46.7 kmh SSE 43.0 mph69.2 kmh 29.69 in1005.4 mb 0.00 in0.0 mm 0.00 in0.0 mm 0.00 in0.0 mm
05:12 PM 48.9°F9.4°C 45.0°F7.2°C 86% 29.0 mph SSE46.7 kmh SSE 43.0 mph69.2 kmh 29.69 in1005.4 mb 0.00 in0.0 mm 0.00 in0.0 mm 0.00 in0.0 mm
05:09 PM 48.9°F9.4°C 45.0°F7.2°C 86% 29.0 mph SSE46.7 kmh SSE 43.0 mph69.2 kmh 29.69 in1005.4 mb 0.00 in0.0 mm 0.00 in0.0 mm 0.00 in0.0 mm
05:06 PM 48.9°F9.4°C 45.0°F7.2°C 86% 28.0 mph SSE45.1 kmh SSE 43.0 mph69.2 kmh 29.70 in1005.8 mb 0.00 in0.0 mm 0.00 in0.0 mm 0.00 in0.0 mm
05:03 PM 48.9°F9.4°C 45.0°F7.2°C 86% 28.0 mph SSE45.1 kmh SSE 41.0 mph66.0 kmh 29.70 in1005.8 mb 0.00 in0.0 mm 0.00 in0.0 mm 0.00 in0.0 mm
05:00 PM 48.9°F9.4°C 45.0°F7.2°C 86% 29.0 mph SSE46.7 kmh SSE 41.0 mph66.0 kmh 29.70 in1005.8 mb 0.00 in0.0 mm 0.00 in0.0 mm 0.00 in0.0 mm
04:57 PM 48.9°F9.4°C 45.0°F7.2°C 86% 29.0 mph SSE46.7 kmh SSE 41.0 mph66.0 kmh 29.69 in1005.4 mb 0.00 in0.0 mm 0.00 in0.0 mm 0.00 in0.0 mm
04:54 PM 48.9°F9.4°C 45.0°F7.2°C 86% 28.0 mph SSE45.1 kmh SSE 41.0 mph66.0 kmh 29.70 in1005.8 mb 0.00 in0.0 mm 0.00 in0.0 mm 0.00 in0.0 mm
04:51 PM 48.9°F9.4°C 45.0°F7.2°C 86% 28.0 mph SSE45.1 kmh SSE 40.0 mph64.4 kmh 29.70 in1005.8 mb 0.00 in0.0 mm 0.00 in0.0 mm 0.00 in0.0 mm
04:48 PM 48.9°F9.4°C 45.0°F7.2°C 86% 27.0 mph SSE43.5 kmh SSE 40.0 mph64.4 kmh 29.70 in1005.8 mb 0.00 in0.0 mm 0.00 in0.0 mm 0.00 in0.0 mm
04:45 PM 48.9°F9.4°C 45.0°F7.2°C 86% 27.0 mph SSE43.5 kmh SSE 40.0 mph64.4 kmh 29.70 in1005.8 mb 0.00 in0.0 mm 0.00 in0.0 mm 0.00 in0.0 mm
04:42 PM 48.9°F9.4°C 45.0°F7.2°C 86% 28.0 mph SSE45.1 kmh SSE 40.0 mph64.4 kmh 29.70 in1005.8 mb 0.00 in0.0 mm 0.00 in0.0 mm 0.00 in0.0 mm
04:39 PM 48.9°F9.4°C 45.0°F7.2°C 86% 27.0 mph SSE43.5 kmh SSE 40.0 mph64.4 kmh 29.70 in1005.8 mb 0.00 in0.0 mm 0.00 in0.0 mm 0.00 in0.0 mm
04:36 PM 48.9°F9.4°C 45.0°F7.2°C 86% 27.0 mph SSE43.5 kmh SSE 40.0 mph64.4 kmh 29.71 in1006.1 mb 0.00 in0.0 mm 0.00 in0.0 mm 0.00 in0.0 mm
04:33 PM 48.9°F9.4°C 45.0°F7.2°C 86% 25.0 mph SSE40.2 kmh SSE 40.0 mph64.4 kmh 29.71 in1006.1 mb 0.00 in0.0 mm 0.00 in0.0 mm 0.00 in0.0 mm
04:30 PM 48.9°F9.4°C 45.0°F7.2°C 86% 24.0 mph SSE38.6 kmh SSE 34.0 mph54.7 kmh 29.71 in1006.1 mb 0.00 in0.0 mm 0.00 in0.0 mm 0.00 in0.0 mm
04:27 PM 48.9°F9.4°C 45.0°F7.2°C 86% 25.0 mph SSE40.2 kmh SSE 40.0 mph64.4 kmh 29.71 in1006.1 mb 0.00 in0.0 mm 0.00 in0.0 mm 0.00 in0.0 mm
04:24 PM 48.9°F9.4°C 45.0°F7.2°C 86% 26.0 mph SSE41.8 kmh SSE 40.0 mph64.4 kmh 29.71 in1006.1 mb 0.00 in0.0 mm 0.00 in0.0 mm 0.00 in0.0 mm
04:21 PM 48.9°F9.4°C 45.0°F7.2°C 86% 25.0 mph SSE40.2 kmh SSE 40.0 mph64.4 kmh 29.71 in1006.1 mb 0.00 in0.0 mm 0.00 in0.0 mm 0.00 in0.0 mm
04:18 PM 48.9°F9.4°C 45.3°F7.4°C 87% 24.0 mph SSE38.6 kmh SSE 36.0 mph57.9 kmh 29.71 in1006.1 mb 0.00 in0.0 mm 0.00 in0.0 mm 0.00 in0.0 mm
04:15 PM 48.9°F9.4°C 45.3°F7.4°C 87% 24.0 mph SSE38.6 kmh SSE 37.0 mph59.5 kmh 29.72 in1006.4 mb 0.00 in0.0 mm 0.00 in0.0 mm 0.00 in0.0 mm
04:12 PM 48.9°F9.4°C 45.0°F7.2°C 86% 24.0 mph SSE38.6 kmh SSE 37.0 mph59.5 kmh 29.72 in1006.4 mb 0.00 in0.0 mm 0.00 in0.0 mm 0.00 in0.0 mm
04:09 PM 48.9°F9.4°C 45.0°F7.2°C 86% 25.0 mph SSE40.2 kmh SSE 37.0 mph59.5 kmh 29.72 in1006.4 mb 0.00 in0.0 mm 0.00 in0.0 mm 0.00 in0.0 mm
04:06 PM 48.9°F9.4°C 45.1°F7.3°C 87% 25.0 mph SSE40.2 kmh SSE 37.0 mph59.5 kmh 29.72 in1006.4 mb 0.00 in0.0 mm 0.00 in0.0 mm 0.00 in0.0 mm
04:03 PM 48.9°F9.4°C 45.0°F7.2°C 86% 24.0 mph SSE38.6 kmh SSE 38.0 mph61.2 kmh 29.72 in1006.4 mb 0.00 in0.0 mm 0.00 in0.0 mm 0.00 in0.0 mm
04:00 PM 48.9°F9.4°C 45.1°F7.3°C 87% 24.0 mph SSE38.6 kmh SSE 38.0 mph61.2 kmh 29.73 in1006.8 mb 0.00 in0.0 mm 0.00 in0.0 mm 0.00 in0.0 mm
03:57 PM 48.9°F9.4°C 45.1°F7.3°C 87% 24.0 mph SSE38.6 kmh SSE 38.0 mph61.2 kmh 29.73 in1006.8 mb 0.00 in0.0 mm 0.00 in0.0 mm 0.00 in0.0 mm
03:54 PM 48.9°F9.4°C 45.3°F7.4°C 87% 23.0 mph SSE37.0 kmh SSE 37.0 mph59.5 kmh 29.73 in1006.8 mb 0.00 in0.0 mm 0.00 in0.0 mm 0.00 in0.0 mm
03:51 PM 48.9°F9.4°C 45.3°F7.4°C 87% 24.0 mph SSE38.6 kmh SSE 37.0 mph59.5 kmh 29.73 in1006.8 mb 0.00 in0.0 mm 0.00 in0.0 mm 0.00 in0.0 mm
03:48 PM 49.1°F9.5°C 45.3°F7.4°C 87% 24.0 mph SSE38.6 kmh SSE 37.0 mph59.5 kmh 29.73 in1006.8 mb 0.00 in0.0 mm 0.00 in0.0 mm 0.00 in0.0 mm
03:45 PM 48.9°F9.4°C 45.3°F7.4°C 87% 25.0 mph SSE40.2 kmh SSE 37.0 mph59.5 kmh 29.73 in1006.8 mb 0.00 in0.0 mm 0.00 in0.0 mm 0.00 in0.0 mm
03:42 PM 48.9°F9.4°C 45.0°F7.2°C 86% 26.0 mph SSE41.8 kmh SSE 37.0 mph59.5 kmh 29.73 in1006.8 mb 0.00 in0.0 mm 0.00 in0.0 mm 0.00 in0.0 mm
03:39 PM 48.9°F9.4°C 45.1°F7.3°C 87% 26.0 mph SSE41.8 kmh SSE 37.0 mph59.5 kmh 29.73 in1006.8 mb 0.00 in0.0 mm 0.00 in0.0 mm 0.00 in0.0 mm
03:36 PM 48.9°F9.4°C 45.1°F7.3°C 87% 26.0 mph SSE41.8 kmh SSE 42.0 mph67.6 kmh 29.73 in1006.8 mb 0.00 in0.0 mm 0.00 in0.0 mm 0.00 in0.0 mm
03:33 PM 48.9°F9.4°C 45.3°F7.4°C 87% 26.0 mph SSE41.8 kmh SSE 42.0 mph67.6 kmh 29.73 in1006.8 mb 0.00 in0.0 mm 0.00 in0.0 mm 0.00 in0.0 mm
03:30 PM 48.9°F9.4°C 45.3°F7.4°C 87% 26.0 mph SSE41.8 kmh SSE 42.0 mph67.6 kmh 29.74 in1007.1 mb 0.00 in0.0 mm 0.00 in0.0 mm 0.00 in0.0 mm
03:27 PM 48.9°F9.4°C 45.1°F7.3°C 87% 25.0 mph SSE40.2 kmh SSE 42.0 mph67.6 kmh 29.74 in1007.1 mb 0.00 in0.0 mm 0.00 in0.0 mm 0.00 in0.0 mm
03:24 PM 48.9°F9.4°C 45.1°F7.3°C 87% 25.0 mph SSE40.2 kmh SSE 39.0 mph62.8 kmh 29.73 in1006.8 mb 0.00 in0.0 mm 0.00 in0.0 mm 0.00 in0.0 mm
03:21 PM 48.9°F9.4°C 45.7°F7.6°C 88% 25.0 mph SSE40.2 kmh SSE 37.0 mph59.5 kmh 29.74 in1007.1 mb 0.00 in0.0 mm 0.00 in0.0 mm 0.00 in0.0 mm
03:18 PM 48.9°F9.4°C 45.1°F7.3°C 87% 24.0 mph SSE38.6 kmh SSE 36.0 mph57.9 kmh 29.74 in1007.1 mb 0.00 in0.0 mm 0.00 in0.0 mm 0.00 in0.0 mm
03:15 PM 48.9°F9.4°C 45.7°F7.6°C 88% 24.0 mph SSE38.6 kmh SSE 35.0 mph56.3 kmh 29.74 in1007.1 mb 0.00 in0.0 mm 0.00 in0.0 mm 0.00 in0.0 mm
03:12 PM 48.9°F9.4°C 45.1°F7.3°C 87% 24.0 mph SSE38.6 kmh SSE 35.0 mph56.3 kmh 29.75 in1007.5 mb 0.00 in0.0 mm 0.00 in0.0 mm 0.00 in0.0 mm
03:09 PM 48.9°F9.4°C 45.1°F7.3°C 87% 25.0 mph SSE40.2 kmh SSE 36.0 mph57.9 kmh 29.75 in1007.5 mb 0.00 in0.0 mm 0.00 in0.0 mm 0.00 in0.0 mm
03:06 PM 48.9°F9.4°C 45.1°F7.3°C 87% 24.0 mph SSE38.6 kmh SSE 36.0 mph57.9 kmh 29.75 in1007.5 mb 0.00 in0.0 mm 0.00 in0.0 mm 0.00 in0.0 mm
03:03 PM 48.9°F9.4°C 45.5°F7.5°C 88% 24.0 mph SSE38.6 kmh SSE 36.0 mph57.9 kmh 29.75 in1007.5 mb 0.00 in0.0 mm 0.00 in0.0 mm 0.00 in0.0 mm
03:00 PM 48.9°F9.4°C 45.5°F7.5°C 88% 24.0 mph SSE38.6 kmh SSE 36.0 mph57.9 kmh 29.75 in1007.5 mb 0.00 in0.0 mm 0.00 in0.0 mm 0.00 in0.0 mm
02:57 PM 48.9°F9.4°C 45.5°F7.5°C 88% 23.0 mph SSE37.0 kmh SSE 33.0 mph53.1 kmh 29.75 in1007.5 mb 0.00 in0.0 mm 0.00 in0.0 mm 0.00 in0.0 mm
02:54 PM 48.9°F9.4°C 45.5°F7.5°C 88% 23.0 mph SSE37.0 kmh SSE 33.0 mph53.1 kmh 29.75 in1007.5 mb 0.00 in0.0 mm 0.00 in0.0 mm 0.00 in0.0 mm
02:51 PM 48.9°F9.4°C 45.7°F7.6°C 88% 23.0 mph SSE37.0 kmh SSE 37.0 mph59.5 kmh 29.75 in1007.5 mb 0.00 in0.0 mm 0.00 in0.0 mm 0.00 in0.0 mm
02:48 PM 48.9°F9.4°C 45.7°F7.6°C 88% 23.0 mph SSE37.0 kmh SSE 37.0 mph59.5 kmh 29.76 in1007.8 mb 0.00 in0.0 mm 0.00 in0.0 mm 0.00 in0.0 mm
02:45 PM 48.9°F9.4°C 45.7°F7.6°C 88% 23.0 mph SSE37.0 kmh SSE 37.0 mph59.5 kmh 29.76 in1007.8 mb 0.00 in0.0 mm 0.00 in0.0 mm 0.00 in0.0 mm
02:42 PM 48.9°F9.4°C 45.7°F7.6°C 88% 22.0 mph SSE35.4 kmh SSE 32.0 mph51.5 kmh 29.76 in1007.8 mb 0.00 in0.0 mm 0.00 in0.0 mm 0.00 in0.0 mm
02:39 PM 48.9°F9.4°C 45.7°F7.6°C 88% 22.0 mph SSE35.4 kmh SSE 35.0 mph56.3 kmh 29.76 in1007.8 mb 0.00 in0.0 mm 0.00 in0.0 mm 0.00 in0.0 mm
02:36 PM 48.9°F9.4°C 45.7°F7.6°C 88% 23.0 mph SSE37.0 kmh SSE 35.0 mph56.3 kmh 29.77 in1008.1 mb 0.00 in0.0 mm 0.00 in0.0 mm 0.00 in0.0 mm
02:33 PM 48.9°F9.4°C 45.7°F7.6°C 88% 23.0 mph SSE37.0 kmh SSE 35.0 mph56.3 kmh 29.77 in1008.1 mb 0.00 in0.0 mm 0.00 in0.0 mm 0.00 in0.0 mm
02:30 PM 48.9°F9.4°C 45.7°F7.6°C 88% 23.0 mph SSE37.0 kmh SSE 33.0 mph53.1 kmh 29.77 in1008.1 mb 0.00 in0.0 mm 0.00 in0.0 mm 0.00 in0.0 mm
02:27 PM 49.1°F9.5°C 45.7°F7.6°C 88% 22.0 mph SSE35.4 kmh SSE 33.0 mph53.1 kmh 29.77 in1008.1 mb 0.00 in0.0 mm 0.00 in0.0 mm 0.00 in0.0 mm
02:24 PM 49.1°F9.5°C 45.7°F7.6°C 88% 21.0 mph SSE33.8 kmh SSE 33.0 mph53.1 kmh 29.77 in1008.1 mb 0.00 in0.0 mm 0.00 in0.0 mm 0.00 in0.0 mm
02:21 PM 49.1°F9.5°C 45.7°F7.6°C 88% 20.0 mph SSE32.2 kmh SSE 32.0 mph51.5 kmh 29.77 in1008.1 mb 0.00 in0.0 mm 0.00 in0.0 mm 0.00 in0.0 mm
02:18 PM 49.1°F9.5°C 45.7°F7.6°C 88% 20.0 mph SSE32.2 kmh SSE 29.0 mph46.7 kmh 29.78 in1008.5 mb 0.00 in0.0 mm 0.00 in0.0 mm 0.00 in0.0 mm
02:15 PM 49.1°F9.5°C 45.7°F7.6°C 88% 21.0 mph SSE33.8 kmh SSE 31.0 mph49.9 kmh 29.77 in1008.1 mb 0.00 in0.0 mm 0.00 in0.0 mm 0.00 in0.0 mm
02:12 PM 49.1°F9.5°C 45.7°F7.6°C 88% 22.0 mph SSE35.4 kmh SSE 31.0 mph49.9 kmh 29.78 in1008.5 mb 0.00 in0.0 mm 0.00 in0.0 mm 0.00 in0.0 mm
02:09 PM 49.1°F9.5°C 45.7°F7.6°C 88% 21.0 mph SSE33.8 kmh SSE 31.0 mph49.9 kmh 29.78 in1008.5 mb 0.00 in0.0 mm 0.00 in0.0 mm 0.00 in0.0 mm
02:06 PM 49.1°F9.5°C 45.7°F7.6°C 88% 22.0 mph SSE35.4 kmh SSE 32.0 mph51.5 kmh 29.78 in1008.5 mb 0.00 in0.0 mm 0.00 in0.0 mm 0.00 in0.0 mm
02:03 PM 49.1°F9.5°C 45.7°F7.6°C 88% 22.0 mph SSE35.4 kmh SSE 32.0 mph51.5 kmh 29.78 in1008.5 mb 0.00 in0.0 mm 0.00 in0.0 mm 0.00 in0.0 mm
02:00 PM 49.1°F9.5°C 45.7°F7.6°C 88% 22.0 mph SSE35.4 kmh SSE 32.0 mph51.5 kmh 29.79 in1008.8 mb 0.00 in0.0 mm 0.00 in0.0 mm 0.00 in0.0 mm
01:57 PM 48.9°F9.4°C 45.3°F7.4°C 87% 23.0 mph SSE37.0 kmh SSE 35.0 mph56.3 kmh 29.79 in1008.8 mb 0.00 in0.0 mm 0.00 in0.0 mm 0.00 in0.0 mm
01:54 PM 49.1°F9.5°C 45.7°F7.6°C 88% 22.0 mph SSE35.4 kmh SSE 35.0 mph56.3 kmh 29.79 in1008.8 mb 0.00 in0.0 mm 0.00 in0.0 mm 0.00 in0.0 mm
01:51 PM 49.1°F9.5°C 45.7°F7.6°C 88% 23.0 mph SSE37.0 kmh SSE 35.0 mph56.3 kmh 29.79 in1008.8 mb 0.00 in0.0 mm 0.00 in0.0 mm 0.00 in0.0 mm
01:48 PM 49.1°F9.5°C 45.7°F7.6°C 88% 22.0 mph SSE35.4 kmh SSE 35.0 mph56.3 kmh 29.80 in1009.1 mb 0.00 in0.0 mm 0.00 in0.0 mm 0.00 in0.0 mm
01:45 PM 48.9°F9.4°C 45.3°F7.4°C 87% 22.0 mph SSE35.4 kmh SSE 35.0 mph56.3 kmh 29.80 in1009.1 mb 0.00 in0.0 mm 0.00 in0.0 mm 0.00 in0.0 mm
01:42 PM 49.1°F9.5°C 45.7°F7.6°C 88% 21.0 mph SSE33.8 kmh SSE 30.0 mph48.3 kmh 29.80 in1009.1 mb 0.00 in0.0 mm 0.00 in0.0 mm 0.00 in0.0 mm
01:39 PM 49.1°F9.5°C 45.7°F7.6°C 88% 21.0 mph SSE33.8 kmh SSE 29.0 mph46.7 kmh 29.80 in1009.1 mb 0.00 in0.0 mm 0.00 in0.0 mm 0.00 in0.0 mm
01:36 PM 49.3°F9.6°C 45.9°F7.7°C 88% 21.0 mph SSE33.8 kmh SSE 31.0 mph49.9 kmh 29.80 in1009.1 mb 0.00 in0.0 mm 0.00 in0.0 mm 0.00 in0.0 mm
01:33 PM 49.3°F9.6°C 45.5°F7.5°C 87% 21.0 mph SSE33.8 kmh SSE 32.0 mph51.5 kmh 29.80 in1009.1 mb 0.00 in0.0 mm 0.00 in0.0 mm 0.00 in0.0 mm
01:30 PM 49.3°F9.6°C 45.7°F7.6°C 87% 21.0 mph SSE33.8 kmh SSE 32.0 mph51.5 kmh 29.80 in1009.1 mb 0.00 in0.0 mm 0.00 in0.0 mm 0.00 in0.0 mm
01:27 PM 49.5°F9.7°C 46.0°F7.8°C 88% 20.0 mph SSE32.2 kmh SSE 32.0 mph51.5 kmh 29.80 in1009.1 mb 0.00 in0.0 mm 0.00 in0.0 mm 0.00 in0.0 mm
01:24 PM 49.6°F9.8°C 46.2°F7.9°C 88% 21.0 mph SSE33.8 kmh SSE 33.0 mph53.1 kmh 29.80 in1009.1 mb 0.00 in0.0 mm 0.00 in0.0 mm 0.00 in0.0 mm
01:21 PM 49.6°F9.8°C 46.2°F7.9°C 88% 21.0 mph SSE33.8 kmh SSE 33.0 mph53.1 kmh 29.81 in1009.5 mb 0.00 in0.0 mm 0.00 in0.0 mm 0.00 in0.0 mm
01:18 PM 49.6°F9.8°C 46.2°F7.9°C 88% 22.0 mph SSE35.4 kmh SSE 33.0 mph53.1 kmh 29.81 in1009.5 mb 0.00 in0.0 mm 0.00 in0.0 mm 0.00 in0.0 mm
01:15 PM 49.6°F9.8°C 46.2°F7.9°C 88% 21.0 mph SSE33.8 kmh SSE 33.0 mph53.1 kmh 29.81 in1009.5 mb 0.00 in0.0 mm 0.00 in0.0 mm 0.00 in0.0 mm
01:12 PM 49.6°F9.8°C 46.2°F7.9°C 88% 21.0 mph SSE33.8 kmh SSE 33.0 mph53.1 kmh 29.81 in1009.5 mb 0.00 in0.0 mm 0.00 in0.0 mm 0.00 in0.0 mm
01:09 PM 49.6°F9.8°C 46.6°F8.1°C 89% 20.0 mph SSE32.2 kmh SSE 29.0 mph46.7 kmh 29.81 in1009.5 mb 0.00 in0.0 mm 0.00 in0.0 mm 0.00 in0.0 mm
01:06 PM 49.5°F9.7°C 46.4°F8.0°C 89% 21.0 mph SSE33.8 kmh SSE 30.0 mph48.3 kmh 29.82 in1009.8 mb 0.00 in0.0 mm 0.00 in0.0 mm 0.00 in0.0 mm
01:03 PM 49.5°F9.7°C 46.2°F7.9°C 89% 21.0 mph SSE33.8 kmh SSE 32.0 mph51.5 kmh 29.82 in1009.8 mb 0.00 in0.0 mm 0.00 in0.0 mm 0.00 in0.0 mm
01:00 PM 49.5°F9.7°C 46.6°F8.1°C 90% 21.0 mph SSE33.8 kmh SSE 32.0 mph51.5 kmh 29.82 in1009.8 mb 0.00 in0.0 mm 0.00 in0.0 mm 0.00 in0.0 mm
12:57 PM 49.3°F9.6°C 46.4°F8.0°C 90% 21.0 mph SSE33.8 kmh SSE 32.0 mph51.5 kmh 29.82 in1009.8 mb 0.00 in0.0 mm 0.00 in0.0 mm 0.00 in0.0 mm
12:54 PM 48.9°F9.4°C 46.2°F7.9°C 90% 21.0 mph SSE33.8 kmh SSE 32.0 mph51.5 kmh 29.83 in1010.2 mb 0.00 in0.0 mm 0.00 in0.0 mm 0.00 in0.0 mm
12:51 PM 48.7°F9.3°C 46.0°F7.8°C 90% 21.0 mph SSE33.8 kmh SSE 32.0 mph51.5 kmh 29.83 in1010.2 mb 0.00 in0.0 mm 0.00 in0.0 mm 0.00 in0.0 mm
12:48 PM 48.6°F9.2°C 45.9°F7.7°C 90% 20.0 mph SSE32.2 kmh SSE 30.0 mph48.3 kmh 29.83 in1010.2 mb 0.00 in0.0 mm 0.00 in0.0 mm 0.00 in0.0 mm
12:45 PM 48.6°F9.2°C 45.7°F7.6°C 90% 19.0 mph SSE30.6 kmh SSE 30.0 mph48.3 kmh 29.83 in1010.2 mb 0.00 in0.0 mm 0.00 in0.0 mm 0.00 in0.0 mm
12:42 PM 48.6°F9.2°C 45.7°F7.6°C 90% 18.0 mph SSE29.0 kmh SSE 30.0 mph48.3 kmh 29.83 in1010.2 mb 0.00 in0.0 mm 0.00 in0.0 mm 0.00 in0.0 mm
12:39 PM 48.6°F9.2°C 45.7°F7.6°C 90% 17.0 mph SSE27.4 kmh SSE 26.0 mph41.8 kmh 29.83 in1010.2 mb 0.00 in0.0 mm 0.00 in0.0 mm 0.00 in0.0 mm
12:36 PM 48.6°F9.2°C 46.0°F7.8°C 91% 17.0 mph SSE27.4 kmh SSE 26.0 mph41.8 kmh 29.83 in1010.2 mb 0.00 in0.0 mm 0.00 in0.0 mm 0.00 in0.0 mm
12:33 PM 48.4°F9.1°C 45.9°F7.7°C 91% 17.0 mph SSE27.4 kmh SSE 28.0 mph45.1 kmh 29.83 in1010.2 mb 0.00 in0.0 mm 0.00 in0.0 mm 0.00 in0.0 mm
12:30 PM 48.6°F9.2°C 46.0°F7.8°C 91% 18.0 mph SSE29.0 kmh SSE 28.0 mph45.1 kmh 29.84 in1010.5 mb 0.00 in0.0 mm 0.00 in0.0 mm 0.00 in0.0 mm
12:27 PM 48.6°F9.2°C 46.0°F7.8°C 91% 19.0 mph SSE30.6 kmh SSE 29.0 mph46.7 kmh 29.84 in1010.5 mb 0.00 in0.0 mm 0.00 in0.0 mm 0.00 in0.0 mm
12:24 PM 48.6°F9.2°C 46.0°F7.8°C 91% 19.0 mph SSE30.6 kmh SSE 29.0 mph46.7 kmh 29.84 in1010.5 mb 0.00 in0.0 mm 0.00 in0.0 mm 0.00 in0.0 mm
12:21 PM 48.6°F9.2°C 46.0°F7.8°C 91% 19.0 mph SSE30.6 kmh SSE 29.0 mph46.7 kmh 29.84 in1010.5 mb 0.00 in0.0 mm 0.00 in0.0 mm 0.00 in0.0 mm
12:18 PM 48.6°F9.2°C 46.4°F8.0°C 92% 19.0 mph SSE30.6 kmh SSE 27.0 mph43.5 kmh 29.85 in1010.8 mb 0.00 in0.0 mm 0.00 in0.0 mm 0.00 in0.0 mm
12:15 PM 48.6°F9.2°C 46.2°F7.9°C 92% 19.0 mph SSE30.6 kmh SSE 27.0 mph43.5 kmh 29.85 in1010.8 mb 0.00 in0.0 mm 0.00 in0.0 mm 0.00 in0.0 mm
12:12 PM 48.4°F9.1°C 46.2°F7.9°C 92% 19.0 mph SSE30.6 kmh SSE 28.0 mph45.1 kmh 29.85 in1010.8 mb 0.00 in0.0 mm 0.00 in0.0 mm 0.00 in0.0 mm
12:09 PM 48.4°F9.1°C 46.0°F7.8°C 92% 18.0 mph SSE29.0 kmh SSE 28.0 mph45.1 kmh 29.85 in1010.8 mb 0.00 in0.0 mm 0.00 in0.0 mm 0.00 in0.0 mm
12:06 PM 48.4°F9.1°C 46.0°F7.8°C 92% 18.0 mph SSE29.0 kmh SSE 28.0 mph45.1 kmh 29.85 in1010.8 mb 0.00 in0.0 mm 0.00 in0.0 mm 0.00 in0.0 mm
12:03 PM 48.2°F9.0°C 46.2°F7.9°C 93% 18.0 mph SSE29.0 kmh SSE 28.0 mph45.1 kmh 29.85 in1010.8 mb 0.00 in0.0 mm 0.00 in0.0 mm 0.00 in0.0 mm
12:00 PM 48.2°F9.0°C 46.2°F7.9°C 93% 18.0 mph SSE29.0 kmh SSE 28.0 mph45.1 kmh 29.86 in1011.2 mb 0.00 in0.0 mm 0.00 in0.0 mm 0.00 in0.0 mm
11:57 AM 48.0°F8.9°C 46.2°F7.9°C 93% 18.0 mph SSE29.0 kmh SSE 28.0 mph45.1 kmh 29.85 in1010.8 mb 0.00 in0.0 mm 0.00 in0.0 mm 0.00 in0.0 mm
11:54 AM 48.0°F8.9°C 46.2°F7.9°C 93% 18.0 mph SSE29.0 kmh SSE 30.0 mph48.3 kmh 29.85 in1010.8 mb 0.00 in0.0 mm 0.00 in0.0 mm 0.00 in0.0 mm
11:51 AM 48.2°F9.0°C 46.6°F8.1°C 94% 19.0 mph SSE30.6 kmh SSE 30.0 mph48.3 kmh 29.86 in1011.2 mb 0.00 in0.0 mm 0.00 in0.0 mm 0.00 in0.0 mm
11:48 AM 48.2°F9.0°C 46.6°F8.1°C 94% 20.0 mph SSE32.2 kmh SSE 30.0 mph48.3 kmh 29.86 in1011.2 mb 0.00 in0.0 mm 0.00 in0.0 mm 0.00 in0.0 mm
11:45 AM 48.2°F9.0°C 46.6°F8.1°C 94% 20.0 mph SSE32.2 kmh SSE 28.0 mph45.1 kmh 29.86 in1011.2 mb 0.00 in0.0 mm 0.00 in0.0 mm 0.00 in0.0 mm
11:42 AM 48.0°F8.9°C 46.4°F8.0°C 94% 20.0 mph SSE32.2 kmh SSE 28.0 mph45.1 kmh 29.86 in1011.2 mb 0.00 in0.0 mm 0.00 in0.0 mm 0.00 in0.0 mm
11:39 AM 48.2°F9.0°C 46.6°F8.1°C 94% 19.0 mph SSE30.6 kmh SSE 28.0 mph45.1 kmh 29.87 in1011.5 mb 0.00 in0.0 mm 0.00 in0.0 mm 0.00 in0.0 mm
11:36 AM 48.2°F9.0°C 46.8°F8.2°C 95% 19.0 mph SSE30.6 kmh SSE 28.0 mph45.1 kmh 29.87 in1011.5 mb 0.00 in0.0 mm 0.00 in0.0 mm 0.00 in0.0 mm
11:33 AM 48.2°F9.0°C 46.8°F8.2°C 95% 18.0 mph SSE29.0 kmh SSE 28.0 mph45.1 kmh 29.87 in1011.5 mb 0.00 in0.0 mm 0.00 in0.0 mm 0.00 in0.0 mm
11:30 AM 48.0°F8.9°C 46.8°F8.2°C 95% 17.0 mph SSE27.4 kmh SSE 28.0 mph45.1 kmh 29.87 in1011.5 mb 0.00 in0.0 mm 0.00 in0.0 mm 0.00 in0.0 mm
11:27 AM 47.8°F8.8°C 46.8°F8.2°C 96% 17.0 mph SSE27.4 kmh SSE 27.0 mph43.5 kmh 29.87 in1011.5 mb 0.00 in0.0 mm 0.00 in0.0 mm 0.00 in0.0 mm
11:24 AM 47.8°F8.8°C 46.8°F8.2°C 96% 16.0 mph SSE25.7 kmh SSE 24.0 mph38.6 kmh 29.87 in1011.5 mb 0.00 in0.0 mm 0.00 in0.0 mm 0.00 in0.0 mm
11:21 AM 47.7°F8.7°C 46.6°F8.1°C 96% 16.0 mph SSE25.7 kmh SSE 24.0 mph38.6 kmh 29.88 in1011.9 mb 0.00 in0.0 mm 0.00 in0.0 mm 0.00 in0.0 mm
11:18 AM 47.5°F8.6°C 46.4°F8.0°C 96% 17.0 mph SSE27.4 kmh SSE 24.0 mph38.6 kmh 29.88 in1011.9 mb 0.00 in0.0 mm 0.00 in0.0 mm 0.00 in0.0 mm
11:15 AM 47.5°F8.6°C 46.4°F8.0°C 96% 17.0 mph SSE27.4 kmh SSE 24.0 mph38.6 kmh 29.88 in1011.9 mb 0.00 in0.0 mm 0.00 in0.0 mm 0.00 in0.0 mm
11:12 AM 47.5°F8.6°C 46.4°F8.0°C 96% 16.0 mph SSE25.7 kmh SSE 24.0 mph38.6 kmh 29.88 in1011.9 mb 0.00 in0.0 mm 0.00 in0.0 mm 0.00 in0.0 mm
11:09 AM 47.5°F8.6°C 46.8°F8.2°C 97% 16.0 mph SSE25.7 kmh SSE 24.0 mph38.6 kmh 29.89 in1012.2 mb 0.00 in0.0 mm 0.00 in0.0 mm 0.00 in0.0 mm
11:06 AM 47.3°F8.5°C 46.6°F8.1°C 97% 16.0 mph SSE25.7 kmh SSE 24.0 mph38.6 kmh 29.89 in1012.2 mb 0.00 in0.0 mm 0.00 in0.0 mm 0.00 in0.0 mm
11:03 AM 46.9°F8.3°C 45.3°F7.4°C 94% 15.0 mph SSE24.1 kmh SSE 22.0 mph35.4 kmh 29.89 in1012.2 mb 0.00 in0.0 mm 0.00 in0.0 mm 0.00 in0.0 mm
11:00 AM 46.9°F8.3°C 45.3°F7.4°C 94% 16.0 mph SSE25.7 kmh SSE 22.0 mph35.4 kmh 29.89 in1012.2 mb 0.00 in0.0 mm 0.00 in0.0 mm 0.00 in0.0 mm
10:57 AM 46.9°F8.3°C 45.3°F7.4°C 94% 15.0 mph SSE24.1 kmh SSE 22.0 mph35.4 kmh 29.89 in1012.2 mb 0.00 in0.0 mm 0.00 in0.0 mm 0.00 in0.0 mm
10:54 AM 46.9°F8.3°C 45.3°F7.4°C 94% 15.0 mph SSE24.1 kmh SSE 22.0 mph35.4 kmh 29.89 in1012.2 mb 0.00 in0.0 mm 0.00 in0.0 mm 0.00 in0.0 mm
10:51 AM 46.9°F8.3°C 45.3°F7.4°C 94% 15.0 mph SSE24.1 kmh SSE 23.0 mph37.0 kmh 29.89 in1012.2 mb 0.00 in0.0 mm 0.00 in0.0 mm 0.00 in0.0 mm
10:48 AM 46.9°F8.3°C 45.3°F7.4°C 94% 15.0 mph SSE24.1 kmh SSE 23.0 mph37.0 kmh 29.89 in1012.2 mb 0.00 in0.0 mm 0.00 in0.0 mm 0.00 in0.0 mm
10:45 AM 46.9°F8.3°C 45.3°F7.4°C 94% 15.0 mph SSE24.1 kmh SSE 23.0 mph37.0 kmh 29.89 in1012.2 mb 0.00 in0.0 mm 0.00 in0.0 mm 0.00 in0.0 mm
10:42 AM 46.9°F8.3°C 45.3°F7.4°C 94% 14.0 mph SSE22.5 kmh SSE 22.0 mph35.4 kmh 29.90 in1012.5 mb 0.00 in0.0 mm 0.00 in0.0 mm 0.00 in0.0 mm
10:39 AM 46.9°F8.3°C 45.3°F7.4°C 94% 11.0 mph S17.7 kmh S 19.0 mph30.6 kmh 29.90 in1012.5 mb 0.00 in0.0 mm 0.00 in0.0 mm 0.00 in0.0 mm
10:36 AM 46.9°F8.3°C 45.3°F7.4°C 94% 10.0 mph S16.1 kmh S 19.0 mph30.6 kmh 29.90 in1012.5 mb 0.00 in0.0 mm 0.00 in0.0 mm 0.00 in0.0 mm
10:33 AM 46.9°F8.3°C 45.3°F7.4°C 94% 9.0 mph SSE14.5 kmh SSE 15.0 mph24.1 kmh 29.90 in1012.5 mb 0.00 in0.0 mm 0.00 in0.0 mm 0.00 in0.0 mm
10:30 AM 46.9°F8.3°C 45.3°F7.4°C 94% 7.0 mph SSE11.3 kmh SSE 15.0 mph24.1 kmh 29.90 in1012.5 mb 0.00 in0.0 mm 0.00 in0.0 mm 0.00 in0.0 mm
10:27 AM 46.9°F8.3°C 45.3°F7.4°C 94% 7.0 mph SE11.3 kmh SE 15.0 mph24.1 kmh 29.90 in1012.5 mb 0.00 in0.0 mm 0.00 in0.0 mm 0.00 in0.0 mm
10:24 AM 46.9°F8.3°C 45.3°F7.4°C 94% 6.0 mph SE9.7 kmh SE 10.0 mph16.1 kmh 29.90 in1012.5 mb 0.00 in0.0 mm 0.00 in0.0 mm 0.00 in0.0 mm
10:21 AM 46.9°F8.3°C 45.3°F7.4°C 94% 6.0 mph SE9.7 kmh SE 10.0 mph16.1 kmh 29.91 in1012.9 mb 0.00 in0.0 mm 0.00 in0.0 mm 0.00 in0.0 mm
10:18 AM 46.9°F8.3°C 45.3°F7.4°C 94% 6.0 mph SE9.7 kmh SE 10.0 mph16.1 kmh 29.90 in1012.5 mb 0.00 in0.0 mm 0.00 in0.0 mm 0.00 in0.0 mm
10:15 AM 46.9°F8.3°C 45.3°F7.4°C 94% 6.0 mph SE9.7 kmh SE 10.0 mph16.1 kmh 29.90 in1012.5 mb 0.00 in0.0 mm 0.00 in0.0 mm 0.00 in0.0 mm
10:12 AM 46.9°F8.3°C 45.3°F7.4°C 94% 6.0 mph SE9.7 kmh SE 10.0 mph16.1 kmh 29.90 in1012.5 mb 0.00 in0.0 mm 0.00 in0.0 mm 0.00 in0.0 mm
10:09 AM 46.9°F8.3°C 45.3°F7.4°C 94% 6.0 mph SE9.7 kmh SE 10.0 mph16.1 kmh 29.90 in1012.5 mb 0.00 in0.0 mm 0.00 in0.0 mm 0.00 in0.0 mm
10:06 AM 46.9°F8.3°C 45.3°F7.4°C 94% 6.0 mph ESE9.7 kmh ESE 11.0 mph17.7 kmh 29.91 in1012.9 mb 0.00 in0.0 mm 0.00 in0.0 mm 0.00 in0.0 mm
10:03 AM 46.9°F8.3°C 45.3°F7.4°C 94% 6.0 mph ESE9.7 kmh ESE 11.0 mph17.7 kmh 29.91 in1012.9 mb 0.00 in0.0 mm 0.00 in0.0 mm 0.00 in0.0 mm
10:00 AM 46.9°F8.3°C 45.3°F7.4°C 94% 6.0 mph ESE9.7 kmh ESE 11.0 mph17.7 kmh 29.90 in1012.5 mb 0.00 in0.0 mm 0.00 in0.0 mm 0.00 in0.0 mm
09:57 AM 46.9°F8.3°C 45.3°F7.4°C 94% 7.0 mph ESE11.3 kmh ESE 11.0 mph17.7 kmh 29.91 in1012.9 mb 0.00 in0.0 mm 0.00 in0.0 mm 0.00 in0.0 mm
09:54 AM 46.9°F8.3°C 45.3°F7.4°C 94% 7.0 mph ESE11.3 kmh ESE 12.0 mph19.3 kmh 29.91 in1012.9 mb 0.00 in0.0 mm 0.00 in0.0 mm 0.00 in0.0 mm
09:51 AM 46.9°F8.3°C 45.3°F7.4°C 94% 7.0 mph E11.3 kmh E 12.0 mph19.3 kmh 29.91 in1012.9 mb 0.00 in0.0 mm 0.00 in0.0 mm 0.00 in0.0 mm
09:48 AM 46.9°F8.3°C 45.3°F7.4°C 94% 8.0 mph E12.9 kmh E 12.0 mph19.3 kmh 29.91 in1012.9 mb 0.00 in0.0 mm 0.00 in0.0 mm 0.00 in0.0 mm
09:45 AM 46.9°F8.3°C 45.3°F7.4°C 94% 8.0 mph E12.9 kmh E 12.0 mph19.3 kmh 29.91 in1012.9 mb 0.00 in0.0 mm 0.00 in0.0 mm 0.00 in0.0 mm
09:42 AM 46.9°F8.3°C 45.3°F7.4°C 94% 7.0 mph E11.3 kmh E 12.0 mph19.3 kmh 29.91 in1012.9 mb 0.00 in0.0 mm 0.00 in0.0 mm 0.00 in0.0 mm
09:39 AM 46.9°F8.3°C 45.3°F7.4°C 94% 7.0 mph E11.3 kmh E 12.0 mph19.3 kmh 29.91 in1012.9 mb 0.00 in0.0 mm 0.00 in0.0 mm 0.00 in0.0 mm
09:36 AM 46.9°F8.3°C 45.3°F7.4°C 94% 6.0 mph E9.7 kmh E 12.0 mph19.3 kmh 29.92 in1013.2 mb 0.00 in0.0 mm 0.00 in0.0 mm 0.00 in0.0 mm
09:33 AM 46.9°F8.3°C 45.3°F7.4°C 94% 5.0 mph E8.0 kmh E 10.0 mph16.1 kmh 29.92 in1013.2 mb 0.00 in0.0 mm 0.00 in0.0 mm 0.00 in0.0 mm
09:30 AM 46.9°F8.3°C 45.3°F7.4°C 94% 4.0 mph E6.4 kmh E 9.0 mph14.5 kmh 29.92 in1013.2 mb 0.00 in0.0 mm 0.00 in0.0 mm 0.00 in0.0 mm
09:27 AM 46.9°F8.3°C 45.3°F7.4°C 94% 4.0 mph E6.4 kmh E 9.0 mph14.5 kmh 29.92 in1013.2 mb 0.00 in0.0 mm 0.00 in0.0 mm 0.00 in0.0 mm
09:24 AM 46.9°F8.3°C 45.3°F7.4°C 94% 4.0 mph E6.4 kmh E 7.0 mph11.3 kmh 29.92 in1013.2 mb 0.00 in0.0 mm 0.00 in0.0 mm 0.00 in0.0 mm
09:21 AM 46.9°F8.3°C 45.3°F7.4°C 94% 4.0 mph E6.4 kmh E 7.0 mph11.3 kmh 29.92 in1013.2 mb 0.00 in0.0 mm 0.00 in0.0 mm 0.00 in0.0 mm
09:18 AM 46.9°F8.3°C 45.3°F7.4°C 94% 4.0 mph E6.4 kmh E 7.0 mph11.3 kmh 29.92 in1013.2 mb 0.00 in0.0 mm 0.00 in0.0 mm 0.00 in0.0 mm
09:15 AM 46.9°F8.3°C 45.3°F7.4°C 94% 3.0 mph E4.8 kmh E 7.0 mph11.3 kmh 29.93 in1013.5 mb 0.00 in0.0 mm 0.00 in0.0 mm 0.00 in0.0 mm
09:12 AM 46.9°F8.3°C 45.3°F7.4°C 94% 2.0 mph E3.2 kmh E 7.0 mph11.3 kmh 29.93 in1013.5 mb 0.00 in0.0 mm 0.00 in0.0 mm 0.00 in0.0 mm
09:09 AM 46.9°F8.3°C 45.3°F7.4°C 94% 2.0 mph E3.2 kmh E 4.0 mph6.4 kmh 29.93 in1013.5 mb 0.00 in0.0 mm 0.00 in0.0 mm 0.00 in0.0 mm
09:06 AM 46.9°F8.3°C 45.3°F7.4°C 94% 2.0 mph E3.2 kmh E 4.0 mph6.4 kmh 29.93 in1013.5 mb 0.00 in0.0 mm 0.00 in0.0 mm 0.00 in0.0 mm
09:03 AM 46.9°F8.3°C 45.3°F7.4°C 94% 2.0 mph E3.2 kmh E 4.0 mph6.4 kmh 29.93 in1013.5 mb 0.00 in0.0 mm 0.00 in0.0 mm 0.00 in0.0 mm
09:00 AM 46.9°F8.3°C 45.3°F7.4°C 94% 3.0 mph E4.8 kmh E 4.0 mph6.4 kmh 29.93 in1013.5 mb 0.00 in0.0 mm 0.00 in0.0 mm 0.00 in0.0 mm
08:57 AM 46.9°F8.3°C 45.3°F7.4°C 94% 3.0 mph E4.8 kmh E 4.0 mph6.4 kmh 29.93 in1013.5 mb 0.00 in0.0 mm 0.00 in0.0 mm 0.00 in0.0 mm
08:54 AM 46.9°F8.3°C 45.3°F7.4°C 94% 2.0 mph E3.2 kmh E 4.0 mph6.4 kmh 29.93 in1013.5 mb 0.00 in0.0 mm 0.00 in0.0 mm 0.00 in0.0 mm
08:51 AM 46.9°F8.3°C 45.3°F7.4°C 94% 2.0 mph E3.2 kmh E 4.0 mph6.4 kmh 29.93 in1013.5 mb 0.00 in0.0 mm 0.00 in0.0 mm 0.00 in0.0 mm
08:48 AM 46.9°F8.3°C 45.3°F7.4°C 94% 2.0 mph E3.2 kmh E 4.0 mph6.4 kmh 29.94 in1013.9 mb 0.00 in0.0 mm 0.00 in0.0 mm 0.00 in0.0 mm
08:45 AM 46.9°F8.3°C 45.3°F7.4°C 94% 2.0 mph E3.2 kmh E 4.0 mph6.4 kmh 29.94 in1013.9 mb 0.00 in0.0 mm 0.00 in0.0 mm 0.00 in0.0 mm
08:42 AM 46.9°F8.3°C 45.3°F7.4°C 94% 2.0 mph E3.2 kmh E 4.0 mph6.4 kmh 29.94 in1013.9 mb 0.00 in0.0 mm 0.00 in0.0 mm 0.00 in0.0 mm
08:39 AM 46.9°F8.3°C 45.3°F7.4°C 94% 2.0 mph E3.2 kmh E 3.0 mph4.8 kmh 29.94 in1013.9 mb 0.00 in0.0 mm 0.00 in0.0 mm 0.00 in0.0 mm
08:36 AM 46.9°F8.3°C 45.3°F7.4°C 94% 2.0 mph E3.2 kmh E 4.0 mph6.4 kmh 29.94 in1013.9 mb 0.00 in0.0 mm 0.00 in0.0 mm 0.00 in0.0 mm
08:33 AM 46.9°F8.3°C 45.3°F7.4°C 94% 2.0 mph E3.2 kmh E 4.0 mph6.4 kmh 29.94 in1013.9 mb 0.00 in0.0 mm 0.00 in0.0 mm 0.00 in0.0 mm
08:30 AM 46.9°F8.3°C 45.3°F7.4°C 94% 2.0 mph E3.2 kmh E 4.0 mph6.4 kmh 29.94 in1013.9 mb 0.00 in0.0 mm 0.00 in0.0 mm 0.00 in0.0 mm
08:27 AM 46.9°F8.3°C 45.3°F7.4°C 94% 3.0 mph E4.8 kmh E 4.0 mph6.4 kmh 29.94 in1013.9 mb 0.00 in0.0 mm 0.00 in0.0 mm 0.00 in0.0 mm
08:24 AM 46.9°F8.3°C 45.3°F7.4°C 94% 3.0 mph E4.8 kmh E 4.0 mph6.4 kmh 29.94 in1013.9 mb 0.00 in0.0 mm 0.00 in0.0 mm 0.00 in0.0 mm
08:21 AM 46.9°F8.3°C 45.3°F7.4°C 94% 3.0 mph E4.8 kmh E 4.0 mph6.4 kmh 29.94 in1013.9 mb 0.00 in0.0 mm 0.00 in0.0 mm 0.00 in0.0 mm
08:18 AM 46.9°F8.3°C 45.3°F7.4°C 94% 3.0 mph E4.8 kmh E 4.0 mph6.4 kmh 29.94 in1013.9 mb 0.00 in0.0 mm 0.00 in0.0 mm 0.00 in0.0 mm
08:15 AM 46.9°F8.3°C 45.3°F7.4°C 94% 2.0 mph E3.2 kmh E 4.0 mph6.4 kmh 29.94 in1013.9 mb 0.00 in0.0 mm 0.00 in0.0 mm 0.00 in0.0 mm
08:12 AM 46.9°F8.3°C 45.3°F7.4°C 94% 1.0 mph E1.6 kmh E 3.0 mph4.8 kmh 29.94 in1013.9 mb 0.00 in0.0 mm 0.00 in0.0 mm 0.00 in0.0 mm
08:09 AM 46.9°F8.3°C 45.3°F7.4°C 94% 1.0 mph E1.6 kmh E 3.0 mph4.8 kmh 29.94 in1013.9 mb 0.00 in0.0 mm 0.00 in0.0 mm 0.00 in0.0 mm
08:06 AM 46.9°F8.3°C 45.3°F7.4°C 94% 1.0 mph E1.6 kmh E 2.0 mph3.2 kmh 29.94 in1013.9 mb 0.00 in0.0 mm 0.00 in0.0 mm 0.00 in0.0 mm
08:03 AM 46.9°F8.3°C 45.3°F7.4°C 94% 1.0 mph E1.6 kmh E 2.0 mph3.2 kmh 29.94 in1013.9 mb 0.00 in0.0 mm 0.00 in0.0 mm 0.00 in0.0 mm
08:00 AM 46.9°F8.3°C 45.3°F7.4°C 94% 1.0 mph E1.6 kmh E 2.0 mph3.2 kmh 29.94 in1013.9 mb 0.00 in0.0 mm 0.00 in0.0 mm 0.00 in0.0 mm
07:57 AM 46.9°F8.3°C 45.3°F7.4°C 94% 2.0 mph E3.2 kmh E 3.0 mph4.8 kmh 29.94 in1013.9 mb 0.00 in0.0 mm 0.00 in0.0 mm 0.00 in0.0 mm
07:54 AM 46.9°F8.3°C 45.3°F7.4°C 94% 2.0 mph E3.2 kmh E 3.0 mph4.8 kmh 29.94 in1013.9 mb 0.00 in0.0 mm 0.00 in0.0 mm 0.00 in0.0 mm
07:51 AM 46.9°F8.3°C 45.3°F7.4°C 94% 2.0 mph E3.2 kmh E 3.0 mph4.8 kmh 29.94 in1013.9 mb 0.00 in0.0 mm 0.00 in0.0 mm 0.00 in0.0 mm
07:48 AM 46.9°F8.3°C 45.3°F7.4°C 94% 2.0 mph E3.2 kmh E 3.0 mph4.8 kmh 29.94 in1013.9 mb 0.00 in0.0 mm 0.00 in0.0 mm 0.00 in0.0 mm
07:45 AM 46.9°F8.3°C 45.3°F7.4°C 94% 2.0 mph E3.2 kmh E 3.0 mph4.8 kmh 29.94 in1013.9 mb 0.00 in0.0 mm 0.00 in0.0 mm 0.00 in0.0 mm
07:42 AM 46.9°F8.3°C 45.3°F7.4°C 94% 2.0 mph E3.2 kmh E 4.0 mph6.4 kmh 29.94 in1013.9 mb 0.00 in0.0 mm 0.00 in0.0 mm 0.00 in0.0 mm
07:39 AM 46.9°F8.3°C 45.3°F7.4°C 94% 3.0 mph E4.8 kmh E 4.0 mph6.4 kmh 29.94 in1013.9 mb 0.00 in0.0 mm 0.00 in0.0 mm 0.00 in0.0 mm
07:36 AM 46.9°F8.3°C 45.3°F7.4°C 94% 2.0 mph E3.2 kmh E 4.0 mph6.4 kmh 29.95 in1014.2 mb 0.00 in0.0 mm 0.00 in0.0 mm 0.00 in0.0 mm
07:33 AM 46.9°F8.3°C 45.3°F7.4°C 94% 1.0 mph ENE1.6 kmh ENE 4.0 mph6.4 kmh 29.95 in1014.2 mb 0.00 in0.0 mm 0.00 in0.0 mm 0.00 in0.0 mm
07:30 AM 46.9°F8.3°C 45.3°F7.4°C 94% Calm Calm 3.0 mph4.8 kmh 29.95 in1014.2 mb 0.00 in0.0 mm 0.00 in0.0 mm 0.00 in0.0 mm
07:27 AM 46.9°F8.3°C 45.3°F7.4°C 94% Calm Calm -- 29.95 in1014.2 mb 0.00 in0.0 mm 0.00 in0.0 mm 0.00 in0.0 mm
07:24 AM 46.9°F8.3°C 45.3°F7.4°C 94% Calm Calm -- 29.95 in1014.2 mb 0.00 in0.0 mm 0.00 in0.0 mm 0.00 in0.0 mm
07:21 AM 46.9°F8.3°C 45.3°F7.4°C 94% Calm Calm -- 29.95 in1014.2 mb 0.00 in0.0 mm 0.00 in0.0 mm 0.00 in0.0 mm
07:18 AM 46.9°F8.3°C 45.3°F7.4°C 94% Calm Calm -- 29.95 in1014.2 mb 0.00 in0.0 mm 0.00 in0.0 mm 0.00 in0.0 mm
07:15 AM 46.9°F8.3°C 45.3°F7.4°C 94% Calm Calm -- 29.95 in1014.2 mb 0.00 in0.0 mm 0.00 in0.0 mm 0.00 in0.0 mm
07:12 AM 46.9°F8.3°C 45.3°F7.4°C 94% Calm Calm -- 29.95 in1014.2 mb 0.00 in0.0 mm 0.00 in0.0 mm 0.00 in0.0 mm
07:09 AM 46.9°F8.3°C 45.3°F7.4°C 94% Calm Calm -- 29.95 in1014.2 mb 0.00 in0.0 mm 0.00 in0.0 mm 0.00 in0.0 mm
07:06 AM 46.9°F8.3°C 45.3°F7.4°C 94% Calm Calm -- 29.96 in1014.6 mb 0.00 in0.0 mm 0.00 in0.0 mm 0.00 in0.0 mm
07:03 AM 46.9°F8.3°C 45.3°F7.4°C 94% Calm Calm -- 29.96 in1014.6 mb 0.00 in0.0 mm 0.00 in0.0 mm 0.00 in0.0 mm
07:00 AM 46.9°F8.3°C 45.3°F7.4°C 94% Calm Calm -- 29.96 in1014.6 mb 0.00 in0.0 mm 0.00 in0.0 mm 0.00 in0.0 mm
06:57 AM 46.9°F8.3°C 45.3°F7.4°C 94% Calm Calm -- 29.95 in1014.2 mb 0.00 in0.0 mm 0.00 in0.0 mm 0.00 in0.0 mm
06:54 AM 46.9°F8.3°C 45.3°F7.4°C 94% Calm Calm -- 29.95 in1014.2 mb 0.00 in0.0 mm 0.00 in0.0 mm 0.00 in0.0 mm
06:51 AM 46.9°F8.3°C 45.3°F7.4°C 94% Calm Calm -- 29.96 in1014.6 mb 0.00 in0.0 mm 0.00 in0.0 mm 0.00 in0.0 mm
06:48 AM 46.9°F8.3°C 45.3°F7.4°C 94% Calm Calm -- 29.96 in1014.6 mb 0.00 in0.0 mm 0.00 in0.0 mm 0.00 in0.0 mm
06:45 AM 46.9°F8.3°C 45.3°F7.4°C 94% Calm Calm -- 29.96 in1014.6 mb 0.00 in0.0 mm 0.00 in0.0 mm 0.00 in0.0 mm
06:42 AM 46.9°F8.3°C 45.3°F7.4°C 94% Calm Calm -- 29.96 in1014.6 mb 0.00 in0.0 mm 0.00 in0.0 mm 0.00 in0.0 mm
06:39 AM 46.9°F8.3°C 45.3°F7.4°C 94% Calm Calm -- 29.96 in1014.6 mb 0.00 in0.0 mm 0.00 in0.0 mm 0.00 in0.0 mm
06:36 AM 46.9°F8.3°C 45.3°F7.4°C 94% Calm Calm 1.0 mph1.6 kmh 29.96 in1014.6 mb 0.00 in0.0 mm 0.00 in0.0 mm 0.00 in0.0 mm
06:33 AM 46.9°F8.3°C 45.3°F7.4°C 94% 1.0 mph NNW1.6 kmh NNW 3.0 mph4.8 kmh 29.96 in1014.6 mb 0.00 in0.0 mm 0.00 in0.0 mm 0.00 in0.0 mm
06:30 AM 46.9°F8.3°C 45.3°F7.4°C 94% 1.0 mph NNW1.6 kmh NNW 3.0 mph4.8 kmh 29.96 in1014.6 mb 0.00 in0.0 mm 0.00 in0.0 mm 0.00 in0.0 mm
06:27 AM 46.9°F8.3°C 45.3°F7.4°C 94% 2.0 mph NNW3.2 kmh NNW 3.0 mph4.8 kmh 29.95 in1014.2 mb 0.00 in0.0 mm 0.00 in0.0 mm 0.00 in0.0 mm
06:24 AM 46.9°F8.3°C 45.3°F7.4°C 94% 2.0 mph NNW3.2 kmh NNW 3.0 mph4.8 kmh 29.96 in1014.6 mb 0.00 in0.0 mm 0.00 in0.0 mm 0.00 in0.0 mm
06:21 AM 46.9°F8.3°C 45.3°F7.4°C 94% 2.0 mph NW3.2 kmh NW 4.0 mph6.4 kmh 29.96 in1014.6 mb 0.00 in0.0 mm 0.00 in0.0 mm 0.00 in0.0 mm
06:18 AM 46.9°F8.3°C 45.3°F7.4°C 94% 2.0 mph NW3.2 kmh NW 4.0 mph6.4 kmh 29.95 in1014.2 mb 0.00 in0.0 mm 0.00 in0.0 mm 0.00 in0.0 mm
06:15 AM 46.9°F8.3°C 45.3°F7.4°C 94% 2.0 mph NW3.2 kmh NW 4.0 mph6.4 kmh 29.95 in1014.2 mb 0.00 in0.0 mm 0.00 in0.0 mm 0.00 in0.0 mm
06:12 AM 46.9°F8.3°C 45.3°F7.4°C 94% 1.0 mph NW1.6 kmh NW 4.0 mph6.4 kmh 29.95 in1014.2 mb 0.00 in0.0 mm 0.00 in0.0 mm 0.00 in0.0 mm
06:09 AM 46.9°F8.3°C 45.3°F7.4°C 94% Calm Calm 2.0 mph3.2 kmh 29.95 in1014.2 mb 0.00 in0.0 mm 0.00 in0.0 mm 0.00 in0.0 mm
06:06 AM 46.9°F8.3°C 45.3°F7.4°C 94% 1.0 mph WSW1.6 kmh WSW 3.0 mph4.8 kmh 29.95 in1014.2 mb 0.00 in0.0 mm 0.00 in0.0 mm 0.00 in0.0 mm
06:03 AM 46.9°F8.3°C 45.3°F7.4°C 94% 1.0 mph WSW1.6 kmh WSW 3.0 mph4.8 kmh 29.95 in1014.2 mb 0.00 in0.0 mm 0.00 in0.0 mm 0.00 in0.0 mm
06:00 AM 46.9°F8.3°C 45.3°F7.4°C 94% 1.0 mph WSW1.6 kmh WSW 4.0 mph6.4 kmh 29.95 in1014.2 mb 0.00 in0.0 mm 0.00 in0.0 mm 0.00 in0.0 mm
05:57 AM 46.9°F8.3°C 45.3°F7.4°C 94% 2.0 mph WSW3.2 kmh WSW 4.0 mph6.4 kmh 29.95 in1014.2 mb 0.00 in0.0 mm 0.00 in0.0 mm 0.00 in0.0 mm
05:54 AM 46.9°F8.3°C 45.3°F7.4°C 94% 1.0 mph WSW1.6 kmh WSW 4.0 mph6.4 kmh 29.95 in1014.2 mb 0.00 in0.0 mm 0.00 in0.0 mm 0.00 in0.0 mm
05:51 AM 46.9°F8.3°C 45.3°F7.4°C 94% 1.0 mph W1.6 kmh W 4.0 mph6.4 kmh 29.96 in1014.6 mb 0.00 in0.0 mm 0.00 in0.0 mm 0.00 in0.0 mm
05:48 AM 46.9°F8.3°C 45.3°F7.4°C 94% 2.0 mph NNW3.2 kmh NNW 5.0 mph8.0 kmh 29.95 in1014.2 mb 0.00 in0.0 mm 0.00 in0.0 mm 0.00 in0.0 mm
05:45 AM 46.9°F8.3°C 45.3°F7.4°C 94% 3.0 mph NNW4.8 kmh NNW 5.0 mph8.0 kmh 29.95 in1014.2 mb 0.00 in0.0 mm 0.00 in0.0 mm 0.00 in0.0 mm
05:42 AM 46.9°F8.3°C 45.3°F7.4°C 94% 4.0 mph NNW6.4 kmh NNW 6.0 mph9.7 kmh 29.95 in1014.2 mb 0.00 in0.0 mm 0.00 in0.0 mm 0.00 in0.0 mm
05:39 AM 46.9°F8.3°C 45.3°F7.4°C 94% 4.0 mph NNW6.4 kmh NNW 8.0 mph12.9 kmh 29.95 in1014.2 mb 0.00 in0.0 mm 0.00 in0.0 mm 0.00 in0.0 mm
05:36 AM 46.9°F8.3°C 45.3°F7.4°C 94% 4.0 mph NNW6.4 kmh NNW 8.0 mph12.9 kmh 29.95 in1014.2 mb 0.00 in0.0 mm 0.00 in0.0 mm 0.00 in0.0 mm
05:33 AM 46.9°F8.3°C 45.3°F7.4°C 94% 5.0 mph NNW8.0 kmh NNW 8.0 mph12.9 kmh 29.94 in1013.9 mb 0.00 in0.0 mm 0.00 in0.0 mm 0.00 in0.0 mm
05:30 AM 46.9°F8.3°C 45.3°F7.4°C 94% 5.0 mph N8.0 kmh N 8.0 mph12.9 kmh 29.95 in1014.2 mb 0.00 in0.0 mm 0.00 in0.0 mm 0.00 in0.0 mm
05:27 AM 46.9°F8.3°C 45.3°F7.4°C 94% 5.0 mph N8.0 kmh N 8.0 mph12.9 kmh 29.94 in1013.9 mb 0.00 in0.0 mm 0.00 in0.0 mm 0.00 in0.0 mm
05:24 AM 46.9°F8.3°C 45.3°F7.4°C 94% 5.0 mph N8.0 kmh N 8.0 mph12.9 kmh 29.94 in1013.9 mb 0.00 in0.0 mm 0.00 in0.0 mm 0.00 in0.0 mm
05:21 AM 46.9°F8.3°C 45.3°F7.4°C 94% 5.0 mph N8.0 kmh N 8.0 mph12.9 kmh 29.94 in1013.9 mb 0.00 in0.0 mm 0.00 in0.0 mm 0.00 in0.0 mm
05:18 AM 46.9°F8.3°C 45.3°F7.4°C 94% 4.0 mph N6.4 kmh N 6.0 mph9.7 kmh 29.95 in1014.2 mb 0.00 in0.0 mm 0.00 in0.0 mm 0.00 in0.0 mm
05:15 AM 46.9°F8.3°C 45.3°F7.4°C 94% 4.0 mph NNW6.4 kmh NNW 6.0 mph9.7 kmh 29.96 in1014.6 mb 0.00 in0.0 mm 0.00 in0.0 mm 0.00 in0.0 mm
05:12 AM 46.9°F8.3°C 45.3°F7.4°C 94% 3.0 mph NNW4.8 kmh NNW 5.0 mph8.0 kmh 29.97 in1014.9 mb 0.00 in0.0 mm 0.00 in0.0 mm 0.00 in0.0 mm
05:09 AM 46.9°F8.3°C 45.3°F7.4°C 94% 2.0 mph NNW3.2 kmh NNW 5.0 mph8.0 kmh 29.97 in1014.9 mb 0.00 in0.0 mm 0.00 in0.0 mm 0.00 in0.0 mm
05:06 AM 46.9°F8.3°C 45.3°F7.4°C 94% 1.0 mph NNW1.6 kmh NNW 3.0 mph4.8 kmh 29.97 in1014.9 mb 0.00 in0.0 mm 0.00 in0.0 mm 0.00 in0.0 mm
05:03 AM 46.9°F8.3°C 45.3°F7.4°C 94% 1.0 mph NNW1.6 kmh NNW 4.0 mph6.4 kmh 29.97 in1014.9 mb 0.00 in0.0 mm 0.00 in0.0 mm 0.00 in0.0 mm
05:00 AM 46.9°F8.3°C 45.3°F7.4°C 94% 1.0 mph NNW1.6 kmh NNW 4.0 mph6.4 kmh 29.97 in1014.9 mb 0.00 in0.0 mm 0.00 in0.0 mm 0.00 in0.0 mm
04:57 AM 46.9°F8.3°C 45.3°F7.4°C 94% 3.0 mph NNW4.8 kmh NNW 5.0 mph8.0 kmh 29.97 in1014.9 mb 0.00 in0.0 mm 0.00 in0.0 mm 0.00 in0.0 mm
04:54 AM 46.9°F8.3°C 45.3°F7.4°C 94% 4.0 mph NNW6.4 kmh NNW 6.0 mph9.7 kmh 29.97 in1014.9 mb 0.00 in0.0 mm 0.00 in0.0 mm 0.00 in0.0 mm
04:51 AM 46.9°F8.3°C 45.3°F7.4°C 94% 4.0 mph NNW6.4 kmh NNW 6.0 mph9.7 kmh 29.97 in1014.9 mb 0.00 in0.0 mm 0.00 in0.0 mm 0.00 in0.0 mm
04:48 AM 46.9°F8.3°C 45.3°F7.4°C 94% 4.0 mph NNW6.4 kmh NNW 6.0 mph9.7 kmh 29.97 in1014.9 mb 0.00 in0.0 mm 0.00 in0.0 mm 0.00 in0.0 mm
04:45 AM 46.9°F8.3°C 45.3°F7.4°C 94% 4.0 mph NNW6.4 kmh NNW 5.0 mph8.0 kmh 29.97 in1014.9 mb 0.00 in0.0 mm 0.00 in0.0 mm 0.00 in0.0 mm
04:42 AM 46.9°F8.3°C 45.3°F7.4°C 94% 3.0 mph NNW4.8 kmh NNW 5.0 mph8.0 kmh 29.97 in1014.9 mb 0.00 in0.0 mm 0.00 in0.0 mm 0.00 in0.0 mm
04:39 AM 46.9°F8.3°C 45.3°F7.4°C 94% 2.0 mph NNW3.2 kmh NNW 5.0 mph8.0 kmh 29.97 in1014.9 mb 0.00 in0.0 mm 0.00 in0.0 mm 0.00 in0.0 mm
04:36 AM 46.9°F8.3°C 45.3°F7.4°C 94% 1.0 mph NNW1.6 kmh NNW 4.0 mph6.4 kmh 29.98 in1015.2 mb 0.00 in0.0 mm 0.00 in0.0 mm 0.00 in0.0 mm
04:33 AM 46.9°F8.3°C 45.3°F7.4°C 94% Calm Calm 1.0 mph1.6 kmh 29.98 in1015.2 mb 0.00 in0.0 mm 0.00 in0.0 mm 0.00 in0.0 mm
04:30 AM 46.9°F8.3°C 45.3°F7.4°C 94% Calm Calm 2.0 mph3.2 kmh 29.98 in1015.2 mb 0.00 in0.0 mm 0.00 in0.0 mm 0.00 in0.0 mm
04:27 AM 46.9°F8.3°C 45.3°F7.4°C 94% 1.0 mph NNW1.6 kmh NNW 2.0 mph3.2 kmh 29.98 in1015.2 mb 0.00 in0.0 mm 0.00 in0.0 mm 0.00 in0.0 mm
04:24 AM 46.9°F8.3°C 45.3°F7.4°C 94% 1.0 mph NNW1.6 kmh NNW 2.0 mph3.2 kmh 29.98 in1015.2 mb 0.00 in0.0 mm 0.00 in0.0 mm 0.00 in0.0 mm
04:21 AM 46.9°F8.3°C 45.3°F7.4°C 94% Calm Calm 2.0 mph3.2 kmh 29.98 in1015.2 mb 0.00 in0.0 mm 0.00 in0.0 mm 0.00 in0.0 mm
04:18 AM 46.9°F8.3°C 45.3°F7.4°C 94% Calm Calm 2.0 mph3.2 kmh 29.98 in1015.2 mb 0.00 in0.0 mm 0.00 in0.0 mm 0.00 in0.0 mm
04:15 AM 46.9°F8.3°C 45.3°F7.4°C 94% Calm Calm 3.0 mph4.8 kmh 29.98 in1015.2 mb 0.00 in0.0 mm 0.00 in0.0 mm 0.00 in0.0 mm
04:12 AM 46.9°F8.3°C 45.3°F7.4°C 94% 1.0 mph NNW1.6 kmh NNW 3.0 mph4.8 kmh 29.98 in1015.2 mb 0.00 in0.0 mm 0.00 in0.0 mm 0.00 in0.0 mm
04:09 AM 46.9°F8.3°C 45.3°F7.4°C 94% 2.0 mph NNW3.2 kmh NNW 5.0 mph8.0 kmh 29.98 in1015.2 mb 0.00 in0.0 mm 0.00 in0.0 mm 0.00 in0.0 mm
04:06 AM 46.9°F8.3°C 45.3°F7.4°C 94% 3.0 mph NNW4.8 kmh NNW 6.0 mph9.7 kmh 29.98 in1015.2 mb 0.00 in0.0 mm 0.00 in0.0 mm 0.00 in0.0 mm
04:03 AM 46.9°F8.3°C 45.3°F7.4°C 94% 4.0 mph NNW6.4 kmh NNW 6.0 mph9.7 kmh 29.97 in1014.9 mb 0.00 in0.0 mm 0.00 in0.0 mm 0.00 in0.0 mm
04:00 AM 46.9°F8.3°C 45.3°F7.4°C 94% 4.0 mph NNW6.4 kmh NNW 6.0 mph9.7 kmh 29.97 in1014.9 mb 0.00 in0.0 mm 0.00 in0.0 mm 0.00 in0.0 mm
03:57 AM 46.9°F8.3°C 45.3°F7.4°C 94% 4.0 mph NNW6.4 kmh NNW 6.0 mph9.7 kmh 29.97 in1014.9 mb 0.00 in0.0 mm 0.00 in0.0 mm 0.00 in0.0 mm
03:54 AM 46.9°F8.3°C 45.3°F7.4°C 94% 3.0 mph NNW4.8 kmh NNW 5.0 mph8.0 kmh 29.97 in1014.9 mb 0.00 in0.0 mm 0.00 in0.0 mm 0.00 in0.0 mm
03:51 AM 46.9°F8.3°C 45.3°F7.4°C 94% 3.0 mph NNW4.8 kmh NNW 5.0 mph8.0 kmh 29.97 in1014.9 mb 0.00 in0.0 mm 0.00 in0.0 mm 0.00 in0.0 mm
03:48 AM 46.9°F8.3°C 45.3°F7.4°C 94% 2.0 mph NNW3.2 kmh NNW 5.0 mph8.0 kmh 29.98 in1015.2 mb 0.00 in0.0 mm 0.00 in0.0 mm 0.00 in0.0 mm
03:45 AM 46.9°F8.3°C 45.3°F7.4°C 94% 2.0 mph NNW3.2 kmh NNW 3.0 mph4.8 kmh 29.98 in1015.2 mb 0.00 in0.0 mm 0.00 in0.0 mm 0.00 in0.0 mm
03:42 AM 46.9°F8.3°C 45.3°F7.4°C 94% 2.0 mph NNW3.2 kmh NNW 4.0 mph6.4 kmh 29.98 in1015.2 mb 0.00 in0.0 mm 0.00 in0.0 mm 0.00 in0.0 mm
03:39 AM 46.9°F8.3°C 45.3°F7.4°C 94% 3.0 mph NNW4.8 kmh NNW 5.0 mph8.0 kmh 29.98 in1015.2 mb 0.00 in0.0 mm 0.00 in0.0 mm 0.00 in0.0 mm
03:36 AM 46.9°F8.3°C 45.3°F7.4°C 94% 3.0 mph NNW4.8 kmh NNW 5.0 mph8.0 kmh 29.97 in1014.9 mb 0.00 in0.0 mm 0.00 in0.0 mm 0.00 in0.0 mm
03:33 AM 46.9°F8.3°C 45.3°F7.4°C 94% 4.0 mph NNW6.4 kmh NNW 6.0 mph9.7 kmh 29.97 in1014.9 mb 0.00 in0.0 mm 0.00 in0.0 mm 0.00 in0.0 mm
03:30 AM 46.9°F8.3°C 45.3°F7.4°C 94% 4.0 mph NNW6.4 kmh NNW 8.0 mph12.9 kmh 29.97 in1014.9 mb 0.00 in0.0 mm 0.00 in0.0 mm 0.00 in0.0 mm
03:27 AM 46.9°F8.3°C 45.3°F7.4°C 94% 4.0 mph NNW6.4 kmh NNW 8.0 mph12.9 kmh 29.98 in1015.2 mb 0.00 in0.0 mm 0.00 in0.0 mm 0.00 in0.0 mm
03:24 AM 46.9°F8.3°C 45.3°F7.4°C 94% 4.0 mph NNW6.4 kmh NNW 8.0 mph12.9 kmh 29.98 in1015.2 mb 0.00 in0.0 mm 0.00 in0.0 mm 0.00 in0.0 mm
03:21 AM 46.9°F8.3°C 45.3°F7.4°C 94% 4.0 mph NNW6.4 kmh NNW 6.0 mph9.7 kmh 29.98 in1015.2 mb 0.00 in0.0 mm 0.00 in0.0 mm 0.00 in0.0 mm
03:18 AM 46.9°F8.3°C 45.3°F7.4°C 94% 3.0 mph NNW4.8 kmh NNW 6.0 mph9.7 kmh 29.98 in1015.2 mb 0.00 in0.0 mm 0.00 in0.0 mm 0.00 in0.0 mm
03:15 AM 46.9°F8.3°C 45.3°F7.4°C 94% 3.0 mph NNW4.8 kmh NNW 4.0 mph6.4 kmh 29.98 in1015.2 mb 0.00 in0.0 mm 0.00 in0.0 mm 0.00 in0.0 mm
03:12 AM 46.9°F8.3°C 45.3°F7.4°C 94% 2.0 mph NNW3.2 kmh NNW 3.0 mph4.8 kmh 29.98 in1015.2 mb 0.00 in0.0 mm 0.00 in0.0 mm 0.00 in0.0 mm
03:09 AM 46.9°F8.3°C 45.3°F7.4°C 94% 2.0 mph NW3.2 kmh NW 3.0 mph4.8 kmh 29.98 in1015.2 mb 0.00 in0.0 mm 0.00 in0.0 mm 0.00 in0.0 mm
03:06 AM 46.9°F8.3°C 45.3°F7.4°C 94% 2.0 mph NW3.2 kmh NW 3.0 mph4.8 kmh 29.98 in1015.2 mb 0.00 in0.0 mm 0.00 in0.0 mm 0.00 in0.0 mm
03:03 AM 46.9°F8.3°C 45.3°F7.4°C 94% 2.0 mph NW3.2 kmh NW 3.0 mph4.8 kmh 29.98 in1015.2 mb 0.00 in0.0 mm 0.00 in0.0 mm 0.00 in0.0 mm
03:00 AM 46.9°F8.3°C 45.3°F7.4°C 94% 2.0 mph NW3.2 kmh NW 3.0 mph4.8 kmh 29.98 in1015.2 mb 0.00 in0.0 mm 0.00 in0.0 mm 0.00 in0.0 mm
02:57 AM 46.9°F8.3°C 45.3°F7.4°C 94% 2.0 mph NW3.2 kmh NW 3.0 mph4.8 kmh 29.98 in1015.2 mb 0.00 in0.0 mm 0.00 in0.0 mm 0.00 in0.0 mm
02:54 AM 46.9°F8.3°C 45.3°F7.4°C 94% 2.0 mph NW3.2 kmh NW 5.0 mph8.0 kmh 29.98 in1015.2 mb 0.00 in0.0 mm 0.00 in0.0 mm 0.00 in0.0 mm
02:51 AM 46.9°F8.3°C 45.3°F7.4°C 94% 3.0 mph NW4.8 kmh NW 5.0 mph8.0 kmh 29.98 in1015.2 mb 0.00 in0.0 mm 0.00 in0.0 mm 0.00 in0.0 mm
02:48 AM 46.9°F8.3°C 45.3°F7.4°C 94% 3.0 mph NNW4.8 kmh NNW 5.0 mph8.0 kmh 29.98 in1015.2 mb 0.00 in0.0 mm 0.00 in0.0 mm 0.00 in0.0 mm
02:45 AM 46.9°F8.3°C 45.3°F7.4°C 94% 3.0 mph NNW4.8 kmh NNW 4.0 mph6.4 kmh 29.98 in1015.2 mb 0.00 in0.0 mm 0.00 in0.0 mm 0.00 in0.0 mm
02:42 AM 46.9°F8.3°C 45.3°F7.4°C 94% 3.0 mph NNW4.8 kmh NNW 5.0 mph8.0 kmh 29.98 in1015.2 mb 0.00 in0.0 mm 0.00 in0.0 mm 0.00 in0.0 mm
02:39 AM 46.9°F8.3°C 45.3°F7.4°C 94% 3.0 mph NNW4.8 kmh NNW 5.0 mph8.0 kmh 29.98 in1015.2 mb 0.00 in0.0 mm 0.00 in0.0 mm 0.00 in0.0 mm
02:36 AM 46.9°F8.3°C 45.3°F7.4°C 94% 3.0 mph NNW4.8 kmh NNW 5.0 mph8.0 kmh 29.98 in1015.2 mb 0.00 in0.0 mm 0.00 in0.0 mm 0.00 in0.0 mm
02:33 AM 46.9°F8.3°C 45.3°F7.4°C 94% 2.0 mph NNW3.2 kmh NNW 5.0 mph8.0 kmh 29.98 in1015.2 mb 0.00 in0.0 mm 0.00 in0.0 mm 0.00 in0.0 mm
02:30 AM 46.9°F8.3°C 45.3°F7.4°C 94% 2.0 mph NNW3.2 kmh NNW 5.0 mph8.0 kmh 29.98 in1015.2 mb 0.00 in0.0 mm 0.00 in0.0 mm 0.00 in0.0 mm
02:27 AM 46.9°F8.3°C 45.3°F7.4°C 94% 3.0 mph NNW4.8 kmh NNW 5.0 mph8.0 kmh 29.98 in1015.2 mb 0.00 in0.0 mm 0.00 in0.0 mm 0.00 in0.0 mm
02:24 AM 46.9°F8.3°C 45.3°F7.4°C 94% 3.0 mph NW4.8 kmh NW 5.0 mph8.0 kmh 29.98 in1015.2 mb 0.00 in0.0 mm 0.00 in0.0 mm 0.00 in0.0 mm
02:21 AM 46.9°F8.3°C 45.3°F7.4°C 94% 3.0 mph NW4.8 kmh NW 5.0 mph8.0 kmh 29.98 in1015.2 mb 0.00 in0.0 mm 0.00 in0.0 mm 0.00 in0.0 mm
02:18 AM 46.9°F8.3°C 45.3°F7.4°C 94% 2.0 mph NW3.2 kmh NW 4.0 mph6.4 kmh 29.98 in1015.2 mb 0.00 in0.0 mm 0.00 in0.0 mm 0.00 in0.0 mm
02:15 AM 46.9°F8.3°C 45.3°F7.4°C 94% 1.0 mph NW1.6 kmh NW 4.0 mph6.4 kmh 29.98 in1015.2 mb 0.00 in0.0 mm 0.00 in0.0 mm 0.00 in0.0 mm
02:12 AM 46.9°F8.3°C 45.3°F7.4°C 94% 1.0 mph WNW1.6 kmh WNW 4.0 mph6.4 kmh 29.98 in1015.2 mb 0.00 in0.0 mm 0.00 in0.0 mm 0.00 in0.0 mm
02:09 AM 46.9°F8.3°C 45.3°F7.4°C 94% Calm Calm 2.0 mph3.2 kmh 29.98 in1015.2 mb 0.00 in0.0 mm 0.00 in0.0 mm 0.00 in0.0 mm
02:06 AM 46.9°F8.3°C 45.3°F7.4°C 94% Calm Calm 2.0 mph3.2 kmh 29.98 in1015.2 mb 0.00 in0.0 mm 0.00 in0.0 mm 0.00 in0.0 mm
02:03 AM 46.9°F8.3°C 45.3°F7.4°C 94% 1.0 mph WNW1.6 kmh WNW 3.0 mph4.8 kmh 29.98 in1015.2 mb 0.00 in0.0 mm 0.00 in0.0 mm 0.00 in0.0 mm
02:00 AM 46.9°F8.3°C 45.3°F7.4°C 94% 1.0 mph NW1.6 kmh NW 3.0 mph4.8 kmh 29.97 in1014.9 mb 0.00 in0.0 mm 0.00 in0.0 mm 0.00 in0.0 mm
01:57 AM 46.9°F8.3°C 45.3°F7.4°C 94% 2.0 mph NW3.2 kmh NW 4.0 mph6.4 kmh 29.97 in1014.9 mb 0.00 in0.0 mm 0.00 in0.0 mm 0.00 in0.0 mm
01:54 AM 46.9°F8.3°C 45.3°F7.4°C 94% 2.0 mph NW3.2 kmh NW 5.0 mph8.0 kmh 29.97 in1014.9 mb 0.00 in0.0 mm 0.00 in0.0 mm 0.00 in0.0 mm
01:51 AM 46.9°F8.3°C 45.3°F7.4°C 94% 2.0 mph NW3.2 kmh NW 5.0 mph8.0 kmh 29.97 in1014.9 mb 0.00 in0.0 mm 0.00 in0.0 mm 0.00 in0.0 mm
01:48 AM 46.9°F8.3°C 45.3°F7.4°C 94% 3.0 mph NW4.8 kmh NW 5.0 mph8.0 kmh 29.96 in1014.6 mb 0.00 in0.0 mm 0.00 in0.0 mm 0.00 in0.0 mm
01:45 AM 46.9°F8.3°C 45.3°F7.4°C 94% 3.0 mph NW4.8 kmh NW 5.0 mph8.0 kmh 29.96 in1014.6 mb 0.00 in0.0 mm 0.00 in0.0 mm 0.00 in0.0 mm
01:42 AM 46.9°F8.3°C 45.3°F7.4°C 94% 3.0 mph NW4.8 kmh NW 8.0 mph12.9 kmh 29.96 in1014.6 mb 0.00 in0.0 mm 0.00 in0.0 mm 0.00 in0.0 mm
01:39 AM 46.9°F8.3°C 45.3°F7.4°C 94% 3.0 mph NW4.8 kmh NW 8.0 mph12.9 kmh 29.96 in1014.6 mb 0.00 in0.0 mm 0.00 in0.0 mm 0.00 in0.0 mm
01:36 AM 46.9°F8.3°C 45.3°F7.4°C 94% 3.0 mph NW4.8 kmh NW 8.0 mph12.9 kmh 29.96 in1014.6 mb 0.00 in0.0 mm 0.00 in0.0 mm 0.00 in0.0 mm
01:33 AM 46.9°F8.3°C 45.3°F7.4°C 94% 3.0 mph NNW4.8 kmh NNW 6.0 mph9.7 kmh 29.96 in1014.6 mb 0.00 in0.0 mm 0.00 in0.0 mm 0.00 in0.0 mm
01:30 AM 46.9°F8.3°C 45.3°F7.4°C 94% 3.0 mph NNW4.8 kmh NNW 6.0 mph9.7 kmh 29.96 in1014.6 mb 0.00 in0.0 mm 0.00 in0.0 mm 0.00 in0.0 mm
01:27 AM 46.9°F8.3°C 45.3°F7.4°C 94% 3.0 mph NNW4.8 kmh NNW 6.0 mph9.7 kmh 29.96 in1014.6 mb 0.00 in0.0 mm 0.00 in0.0 mm 0.00 in0.0 mm
01:24 AM 46.9°F8.3°C 45.3°F7.4°C 94% 3.0 mph NNW4.8 kmh NNW 6.0 mph9.7 kmh 29.96 in1014.6 mb 0.00 in0.0 mm 0.00 in0.0 mm 0.00 in0.0 mm
01:21 AM 46.9°F8.3°C 45.3°F7.4°C 94% 3.0 mph NNW4.8 kmh NNW 6.0 mph9.7 kmh 29.96 in1014.6 mb 0.00 in0.0 mm 0.00 in0.0 mm 0.00 in0.0 mm
01:18 AM 46.9°F8.3°C 45.3°F7.4°C 94% 3.0 mph NNW4.8 kmh NNW 6.0 mph9.7 kmh 29.96 in1014.6 mb 0.00 in0.0 mm 0.00 in0.0 mm 0.00 in0.0 mm
01:15 AM 46.9°F8.3°C 45.3°F7.4°C 94% 3.0 mph NNW4.8 kmh NNW 6.0 mph9.7 kmh 29.96 in1014.6 mb 0.00 in0.0 mm 0.00 in0.0 mm 0.00 in0.0 mm
01:12 AM 46.9°F8.3°C 45.3°F7.4°C 94% 4.0 mph NNW6.4 kmh NNW 6.0 mph9.7 kmh 29.96 in1014.6 mb 0.00 in0.0 mm 0.00 in0.0 mm 0.00 in0.0 mm
01:09 AM 46.9°F8.3°C 45.3°F7.4°C 94% 4.0 mph NNW6.4 kmh NNW 8.0 mph12.9 kmh 29.95 in1014.2 mb 0.00 in0.0 mm 0.00 in0.0 mm 0.00 in0.0 mm
01:06 AM 46.9°F8.3°C 45.3°F7.4°C 94% 4.0 mph NW6.4 kmh NW 8.0 mph12.9 kmh 29.95 in1014.2 mb 0.00 in0.0 mm 0.00 in0.0 mm 0.00 in0.0 mm
01:03 AM 46.9°F8.3°C 45.3°F7.4°C 94% 3.0 mph NW4.8 kmh NW 8.0 mph12.9 kmh 29.95 in1014.2 mb 0.00 in0.0 mm 0.00 in0.0 mm 0.00 in0.0 mm
01:00 AM 46.9°F8.3°C 45.3°F7.4°C 94% 2.0 mph NW3.2 kmh NW 5.0 mph8.0 kmh 29.95 in1014.2 mb 0.00 in0.0 mm 0.00 in0.0 mm 0.00 in0.0 mm
12:57 AM 46.9°F8.3°C 45.3°F7.4°C 94% 2.0 mph WNW3.2 kmh WNW 4.0 mph6.4 kmh 29.96 in1014.6 mb 0.00 in0.0 mm 0.00 in0.0 mm 0.00 in0.0 mm
12:54 AM 46.9°F8.3°C 45.3°F7.4°C 94% 2.0 mph W3.2 kmh W 4.0 mph6.4 kmh 29.96 in1014.6 mb 0.00 in0.0 mm 0.00 in0.0 mm 0.00 in0.0 mm
12:51 AM 46.9°F8.3°C 45.3°F7.4°C 94% 1.0 mph WNW1.6 kmh WNW 3.0 mph4.8 kmh 29.96 in1014.6 mb 0.00 in0.0 mm 0.00 in0.0 mm 0.00 in0.0 mm
12:48 AM 46.9°F8.3°C 45.3°F7.4°C 94% 1.0 mph NW1.6 kmh NW 3.0 mph4.8 kmh 29.96 in1014.6 mb 0.00 in0.0 mm 0.00 in0.0 mm 0.00 in0.0 mm
12:45 AM 46.9°F8.3°C 45.3°F7.4°C 94% 2.0 mph NW3.2 kmh NW 4.0 mph6.4 kmh 29.95 in1014.2 mb 0.00 in0.0 mm 0.00 in0.0 mm 0.00 in0.0 mm
12:42 AM 46.9°F8.3°C 45.3°F7.4°C 94% 2.0 mph NW3.2 kmh NW 4.0 mph6.4 kmh 29.96 in1014.6 mb 0.00 in0.0 mm 0.00 in0.0 mm 0.00 in0.0 mm
12:39 AM 46.9°F8.3°C 45.3°F7.4°C 94% 2.0 mph NW3.2 kmh NW 4.0 mph6.4 kmh 29.95 in1014.2 mb 0.00 in0.0 mm 0.00 in0.0 mm 0.00 in0.0 mm
12:36 AM 46.9°F8.3°C 45.3°F7.4°C 94% 3.0 mph NW4.8 kmh NW 8.0 mph12.9 kmh 29.95 in1014.2 mb 0.00 in0.0 mm 0.00 in0.0 mm 0.00 in0.0 mm
12:33 AM 46.9°F8.3°C 45.3°F7.4°C 94% 3.0 mph NW4.8 kmh NW 8.0 mph12.9 kmh 29.95 in1014.2 mb 0.00 in0.0 mm 0.00 in0.0 mm 0.00 in0.0 mm
12:30 AM 46.9°F8.3°C 45.3°F7.4°C 94% 3.0 mph NW4.8 kmh NW 8.0 mph12.9 kmh 29.95 in1014.2 mb 0.00 in0.0 mm 0.00 in0.0 mm 0.00 in0.0 mm
12:27 AM 46.9°F8.3°C 45.3°F7.4°C 94% 2.0 mph NW3.2 kmh NW 4.0 mph6.4 kmh 29.95 in1014.2 mb 0.00 in0.0 mm 0.00 in0.0 mm 0.00 in0.0 mm
12:24 AM 46.9°F8.3°C 45.3°F7.4°C 94% 2.0 mph NW3.2 kmh NW 4.0 mph6.4 kmh 29.95 in1014.2 mb 0.00 in0.0 mm 0.00 in0.0 mm 0.00 in0.0 mm
12:21 AM 46.9°F8.3°C 45.3°F7.4°C 94% 2.0 mph NW3.2 kmh NW 6.0 mph9.7 kmh 29.96 in1014.6 mb 0.00 in0.0 mm 0.00 in0.0 mm 0.00 in0.0 mm
12:18 AM 46.9°F8.3°C 45.3°F7.4°C 94% 2.0 mph NW3.2 kmh NW 8.0 mph12.9 kmh 29.96 in1014.6 mb 0.00 in0.0 mm 0.00 in0.0 mm 0.00 in0.0 mm
12:15 AM 46.9°F8.3°C 45.3°F7.4°C 94% 2.0 mph NW3.2 kmh NW 8.0 mph12.9 kmh 29.95 in1014.2 mb 0.00 in0.0 mm 0.00 in0.0 mm 0.00 in0.0 mm
12:12 AM 46.9°F8.3°C 45.3°F7.4°C 94% 2.0 mph NW3.2 kmh NW 8.0 mph12.9 kmh 29.95 in1014.2 mb 0.00 in0.0 mm 0.00 in0.0 mm 0.00 in0.0 mm
12:09 AM 46.9°F8.3°C 45.3°F7.4°C 94% 3.0 mph WNW4.8 kmh WNW 6.0 mph9.7 kmh 29.95 in1014.2 mb 0.00 in0.0 mm 0.00 in0.0 mm 0.00 in0.0 mm
12:06 AM 46.9°F8.3°C 45.3°F7.4°C 94% 3.0 mph WNW4.8 kmh WNW 6.0 mph9.7 kmh 29.96 in1014.6 mb 0.00 in0.0 mm 0.00 in0.0 mm 0.00 in0.0 mm
12:03 AM 46.9°F8.3°C 45.3°F7.4°C 94% 3.0 mph NW4.8 kmh NW 6.0 mph9.7 kmh 29.95 in1014.2 mb 0.00 in0.0 mm 0.00 in0.0 mm 0.00 in0.0 mm
12:00 AM 46.9°F8.3°C 45.3°F7.4°C 94% 3.0 mph NW4.8 kmh NW 7.0 mph11.3 kmh 29.95 in1014.2 mb 0.00 in0.0 mm 0.00 in0.0 mm 0.00 in0.0 mm